Observation data for New Home on 09/12/2017      Previous  Date  Next       Current Mesonet Observations  Soil Data  Daily Summary Page  Observations in Plain Language
KNH1 120500Z 11003KT 20/11 A3015 RMK A01 T02010109  RH  056%=      5-min Rain = 0
KNH1 120501Z 11003KT 20/11 A3015 RMK A01 T02000109  RH  056%=      5-min Rain = 0
KNH1 120502Z 11004KT 20/11 A3015 RMK A01 T02000110  RH  056%=      5-min Rain = 0
KNH1 120503Z 10003KT 20/11 A3015 RMK A01 T02000110  RH  056%=      5-min Rain = 0
KNH1 120504Z 11003KT 20/11 A3015 RMK A01 T02000110  RH  056%=      5-min Rain = 0
KNH1 120505Z 11003KT 20/11 A3015 RMK A01 T01990110  RH  056%=      5-min Rain = 0
KNH1 120506Z 11003KT 20/11 A3015 RMK A01 T01990110  RH  056%=      5-min Rain = 0
KNH1 120507Z 11003KT 20/11 A3014 RMK A01 T01980110  RH  057%=      5-min Rain = 0
KNH1 120508Z 11003KT 20/11 A3014 RMK A01 T01970109  RH  056%=      5-min Rain = 0
KNH1 120509Z 11003KT 20/11 A3014 RMK A01 T01970109  RH  057%=      5-min Rain = 0
KNH1 120510Z 11003KT 20/11 A3014 RMK A01 T01960108  RH  057%=      5-min Rain = 0
KNH1 120511Z 11004KT 20/11 A3014 RMK A01 T01960108  RH  057%=      5-min Rain = 0
KNH1 120512Z 11004KT 20/11 A3014 RMK A01 T01950109  RH  057%=      5-min Rain = 0
KNH1 120513Z 11005KT 20/11 A3014 RMK A01 T01950110  RH  058%=      5-min Rain = 0
KNH1 120514Z 11005KT 20/11 A3014 RMK A01 T01950109  RH  057%=      5-min Rain = 0
KNH1 120515Z 11004KT 20/11 A3014 RMK A01 T01960108  RH  057%=      5-min Rain = 0
KNH1 120516Z 12005KT 20/11 A3014 RMK A01 T01960109  RH  057%=      5-min Rain = 0
KNH1 120517Z 12005KT 20/11 A3014 RMK A01 T01960109  RH  057%=      5-min Rain = 0
KNH1 120518Z 12005KT 20/11 A3014 RMK A01 T01970109  RH  057%=      5-min Rain = 0
KNH1 120519Z 11005KT 20/11 A3014 RMK A01 T01970109  RH  057%=      5-min Rain = 0
KNH1 120520Z 11005KT 20/11 A3014 RMK A01 T01960109  RH  057%=      5-min Rain = 0
KNH1 120521Z 11006KT 20/11 A3014 RMK A01 T01960109  RH  057%=      5-min Rain = 0
KNH1 120522Z 11006KT 20/11 A3014 RMK A01 T01960109  RH  057%=      5-min Rain = 0
KNH1 120523Z 11006KT 20/11 A3014 RMK A01 T01960109  RH  057%=      5-min Rain = 0
KNH1 120524Z 11006KT 20/11 A3014 RMK A01 T01950109  RH  057%=      5-min Rain = 0
KNH1 120525Z 11005KT 20/11 A3014 RMK A01 T01950109  RH  057%=      5-min Rain = 0
KNH1 120526Z 11005KT 20/11 A3014 RMK A01 T01950109  RH  058%=      5-min Rain = 0
KNH1 120527Z 11006KT 19/11 A3014 RMK A01 T01930109  RH  058%=      5-min Rain = 0
KNH1 120528Z 11005KT 19/11 A3014 RMK A01 T01920109  RH  058%=      5-min Rain = 0
KNH1 120529Z 11005KT 19/11 A3014 RMK A01 T01910108  RH  059%=      5-min Rain = 0
KNH1 120530Z 11005KT 19/11 A3014 RMK A01 T01900108  RH  059%=      5-min Rain = 0
KNH1 120531Z 11005KT 19/11 A3014 RMK A01 T01890109  RH  060%=      5-min Rain = 0
KNH1 120532Z 11004KT 19/11 A3015 RMK A01 T01880110  RH  060%=      5-min Rain = 0
KNH1 120533Z 11004KT 19/11 A3015 RMK A01 T01870110  RH  061%=      5-min Rain = 0
KNH1 120534Z 11005KT 19/11 A3015 RMK A01 T01860110  RH  061%=      5-min Rain = 0
KNH1 120535Z 11006KT 18/11 A3015 RMK A01 T01840110  RH  062%=      5-min Rain = 0
KNH1 120536Z 10005KT 18/11 A3015 RMK A01 T01840109  RH  062%=      5-min Rain = 0
KNH1 120537Z 11005KT 18/11 A3014 RMK A01 T01840109  RH  062%=      5-min Rain = 0
KNH1 120538Z 11004KT 18/11 A3014 RMK A01 T01830109  RH  062%=      5-min Rain = 0
KNH1 120539Z 10004KT 18/11 A3014 RMK A01 T01830109  RH  062%=      5-min Rain = 0
KNH1 120540Z 11005KT 18/11 A3014 RMK A01 T01830109  RH  062%=      5-min Rain = 0
KNH1 120541Z 11005KT 18/11 A3014 RMK A01 T01830109  RH  062%=      5-min Rain = 0
KNH1 120542Z 11005KT 18/11 A3014 RMK A01 T01820108  RH  062%=      5-min Rain = 0
KNH1 120543Z 11005KT 18/11 A3014 RMK A01 T01820108  RH  062%=      5-min Rain = 0
KNH1 120544Z 11005KT 18/11 A3014 RMK A01 T01820108  RH  062%=      5-min Rain = 0
KNH1 120545Z 11005KT 18/11 A3014 RMK A01 T01820108  RH  062%=      5-min Rain = 0
KNH1 120546Z 11005KT 18/11 A3014 RMK A01 T01820108  RH  062%=      5-min Rain = 0
KNH1 120547Z 11006KT 18/11 A3014 RMK A01 T01820108  RH  062%=      5-min Rain = 0
KNH1 120548Z 12006KT 18/11 A3014 RMK A01 T01820108  RH  062%=      5-min Rain = 0
KNH1 120549Z 11005KT 18/11 A3014 RMK A01 T01820109  RH  062%=      5-min Rain = 0
KNH1 120550Z 11005KT 18/11 A3014 RMK A01 T01810108  RH  062%=      5-min Rain = 0
KNH1 120551Z 11004KT 18/11 A3014 RMK A01 T01810108  RH  062%=      5-min Rain = 0
KNH1 120552Z 11004KT 18/11 A3014 RMK A01 T01800108  RH  063%=      5-min Rain = 0
KNH1 120553Z 11004KT 18/11 A3014 RMK A01 T01800108  RH  063%=      5-min Rain = 0
KNH1 120554Z 11004KT 18/11 A3014 RMK A01 T01790108  RH  063%=      5-min Rain = 0
KNH1 120555Z 11005KT 18/11 A3014 RMK A01 T01790108  RH  063%=      5-min Rain = 0
KNH1 120556Z 11005KT 18/11 A3014 RMK A01 T01780108  RH  064%=      5-min Rain = 0
KNH1 120557Z 11005KT 18/11 A3014 RMK A01 T01780109  RH  064%=      5-min Rain = 0
KNH1 120558Z 11004KT 18/11 A3014 RMK A01 T01770109  RH  064%=      5-min Rain = 0
KNH1 120559Z 12005KT 18/11 A3014 RMK A01 T01770109  RH  064%=      5-min Rain = 0
KNH1 120600Z 11005KT 18/11 A3014 RMK A01 T01760109  RH  065%=      5-min Rain = 0
KNH1 120601Z 11005KT 18/11 A3014 RMK A01 T01750108  RH  065%=      5-min Rain = 0
KNH1 120602Z 11004KT 18/11 A3014 RMK A01 T01750109  RH  065%=      5-min Rain = 0
KNH1 120603Z 11004KT 18/11 A3014 RMK A01 T01750108  RH  065%=      5-min Rain = 0
KNH1 120604Z 11005KT 18/11 A3014 RMK A01 T01750108  RH  065%=      5-min Rain = 0
KNH1 120605Z 11005KT 18/11 A3014 RMK A01 T01750108  RH  065%=      5-min Rain = 0
KNH1 120606Z 12005KT 18/11 A3014 RMK A01 T01750107  RH  064%=      5-min Rain = 0
KNH1 120607Z 11005KT 18/11 A3014 RMK A01 T01760107  RH  064%=      5-min Rain = 0
KNH1 120608Z 11005KT 18/11 A3014 RMK A01 T01770107  RH  063%=      5-min Rain = 0
KNH1 120609Z 12005KT 18/11 A3014 RMK A01 T01780107  RH  063%=      5-min Rain = 0
KNH1 120610Z 10005KT 18/11 A3014 RMK A01 T01770107  RH  064%=      5-min Rain = 0
KNH1 120611Z 11006KT 18/11 A3014 RMK A01 T01770107  RH  063%=      5-min Rain = 0
KNH1 120612Z 11005KT 18/11 A3014 RMK A01 T01770107  RH  064%=      5-min Rain = 0
KNH1 120613Z 11005KT 18/11 A3014 RMK A01 T01770107  RH  064%=      5-min Rain = 0
KNH1 120614Z 11006KT 18/11 A3013 RMK A01 T01770107  RH  064%=      5-min Rain = 0
KNH1 120615Z 11006KT 18/11 A3013 RMK A01 T01760106  RH  064%=      5-min Rain = 0
KNH1 120616Z 11006KT 18/11 A3013 RMK A01 T01760106  RH  063%=      5-min Rain = 0
KNH1 120617Z 11005KT 18/11 A3013 RMK A01 T01760107  RH  064%=      5-min Rain = 0
KNH1 120618Z 11004KT 18/11 A3013 RMK A01 T01750107  RH  064%=      5-min Rain = 0
KNH1 120619Z 11005KT 17/11 A3013 RMK A01 T01740106  RH  064%=      5-min Rain = 0
KNH1 120620Z 11004KT 17/11 A3013 RMK A01 T01740106  RH  065%=      5-min Rain = 0
KNH1 120621Z 11005KT 17/11 A3013 RMK A01 T01740106  RH  065%=      5-min Rain = 0
KNH1 120622Z 11005KT 17/11 A3013 RMK A01 T01740106  RH  065%=      5-min Rain = 0
KNH1 120623Z 11006KT 17/11 A3013 RMK A01 T01730106  RH  065%=      5-min Rain = 0
KNH1 120624Z 11005KT 17/11 A3013 RMK A01 T01730106  RH  065%=      5-min Rain = 0
KNH1 120625Z 11005KT 17/11 A3013 RMK A01 T01730106  RH  065%=      5-min Rain = 0
KNH1 120626Z 11006KT 17/11 A3013 RMK A01 T01730105  RH  065%=      5-min Rain = 0
KNH1 120627Z 11005KT 17/11 A3013 RMK A01 T01730105  RH  065%=      5-min Rain = 0
KNH1 120628Z 11006KT 17/11 A3013 RMK A01 T01730106  RH  064%=      5-min Rain = 0
KNH1 120629Z 11005KT 17/11 A3013 RMK A01 T01730105  RH  064%=      5-min Rain = 0
KNH1 120630Z 11006KT 17/11 A3013 RMK A01 T01730105  RH  064%=      5-min Rain = 0
KNH1 120631Z 11006KT 17/11 A3013 RMK A01 T01730105  RH  064%=      5-min Rain = 0
KNH1 120632Z 11006KT 17/11 A3013 RMK A01 T01730105  RH  064%=      5-min Rain = 0
KNH1 120633Z 11006KT 17/11 A3013 RMK A01 T01730105  RH  064%=      5-min Rain = 0
KNH1 120634Z 11006KT 17/11 A3013 RMK A01 T01730105  RH  064%=      5-min Rain = 0
KNH1 120635Z 11005KT 17/11 A3013 RMK A01 T01730105  RH  064%=      5-min Rain = 0
KNH1 120636Z 11006KT 17/11 A3013 RMK A01 T01740105  RH  064%=      5-min Rain = 0
KNH1 120637Z 11005KT 17/11 A3013 RMK A01 T01730105  RH  064%=      5-min Rain = 0
KNH1 120638Z 11005KT 17/11 A3013 RMK A01 T01730105  RH  064%=      5-min Rain = 0
KNH1 120639Z 11005KT 17/11 A3013 RMK A01 T01730105  RH  064%=      5-min Rain = 0
KNH1 120640Z 12004KT 17/11 A3013 RMK A01 T01730105  RH  064%=      5-min Rain = 0
KNH1 120641Z 12005KT 17/11 A3013 RMK A01 T01730105  RH  064%=      5-min Rain = 0
KNH1 120642Z 12005KT 17/11 A3013 RMK A01 T01730105  RH  064%=      5-min Rain = 0
KNH1 120643Z 12005KT 17/11 A3013 RMK A01 T01730105  RH  064%=      5-min Rain = 0
KNH1 120644Z 12005KT 17/11 A3013 RMK A01 T01720105  RH  065%=      5-min Rain = 0
KNH1 120645Z 12005KT 17/11 A3013 RMK A01 T01720105  RH  065%=      5-min Rain = 0
KNH1 120646Z 13004KT 17/11 A3013 RMK A01 T01710105  RH  065%=      5-min Rain = 0
KNH1 120647Z 12003KT 17/11 A3013 RMK A01 T01700105  RH  065%=      5-min Rain = 0
KNH1 120648Z 13003KT 17/11 A3013 RMK A01 T01700106  RH  066%=      5-min Rain = 0
KNH1 120649Z 12004KT 17/11 A3013 RMK A01 T01690106  RH  066%=      5-min Rain = 0
KNH1 120650Z 13003KT 17/11 A3013 RMK A01 T01690106  RH  066%=      5-min Rain = 0
KNH1 120651Z 13004KT 17/11 A3013 RMK A01 T01680105  RH  067%=      5-min Rain = 0
KNH1 120652Z 12004KT 17/11 A3013 RMK A01 T01670105  RH  067%=      5-min Rain = 0
KNH1 120653Z 13004KT 17/11 A3013 RMK A01 T01670105  RH  067%=      5-min Rain = 0
KNH1 120654Z 13004KT 17/11 A3013 RMK A01 T01670105  RH  067%=      5-min Rain = 0
KNH1 120655Z 13004KT 17/11 A3013 RMK A01 T01660105  RH  067%=      5-min Rain = 0
KNH1 120656Z 13004KT 17/11 A3013 RMK A01 T01660105  RH  067%=      5-min Rain = 0
KNH1 120657Z 13004KT 17/10 A3013 RMK A01 T01660104  RH  067%=      5-min Rain = 0
KNH1 120658Z 14004KT 17/10 A3013 RMK A01 T01650104  RH  067%=      5-min Rain = 0
KNH1 120659Z 13004KT 17/10 A3013 RMK A01 T01650104  RH  067%=      5-min Rain = 0
KNH1 120700Z 13005KT 16/10 A3013 RMK A01 T01640104  RH  067%=      5-min Rain = 0
KNH1 120701Z 13005KT 16/10 A3013 RMK A01 T01640104  RH  067%=      5-min Rain = 0
KNH1 120702Z 13005KT 16/10 A3013 RMK A01 T01640104  RH  067%=      5-min Rain = 0
KNH1 120703Z 14005KT 16/10 A3013 RMK A01 T01640104  RH  068%=      5-min Rain = 0
KNH1 120704Z 14004KT 16/10 A3013 RMK A01 T01640104  RH  067%=      5-min Rain = 0
KNH1 120705Z 13005KT 16/10 A3013 RMK A01 T01640103  RH  067%=      5-min Rain = 0
KNH1 120706Z 14005KT 16/10 A3013 RMK A01 T01640103  RH  067%=      5-min Rain = 0
KNH1 120707Z 14004KT 16/10 A3013 RMK A01 T01630103  RH  067%=      5-min Rain = 0
KNH1 120708Z 14005KT 16/10 A3013 RMK A01 T01630103  RH  067%=      5-min Rain = 0
KNH1 120709Z 13004KT 16/10 A3013 RMK A01 T01630103  RH  068%=      5-min Rain = 0
KNH1 120710Z 14004KT 16/10 A3013 RMK A01 T01630103  RH  068%=      5-min Rain = 0
KNH1 120711Z 14004KT 16/10 A3013 RMK A01 T01620103  RH  068%=      5-min Rain = 0
KNH1 120712Z 14004KT 16/10 A3012 RMK A01 T01620103  RH  068%=      5-min Rain = 0
KNH1 120713Z 14004KT 16/10 A3012 RMK A01 T01620103  RH  068%=      5-min Rain = 0
KNH1 120714Z 14004KT 16/10 A3012 RMK A01 T01620103  RH  068%=      5-min Rain = 0
KNH1 120715Z 14004KT 16/10 A3012 RMK A01 T01620103  RH  068%=      5-min Rain = 0
KNH1 120716Z 14005KT 16/10 A3012 RMK A01 T01620103  RH  068%=      5-min Rain = 0
KNH1 120717Z 15004KT 16/10 A3012 RMK A01 T01630103  RH  068%=      5-min Rain = 0
KNH1 120718Z 15004KT 16/10 A3012 RMK A01 T01630103  RH  067%=      5-min Rain = 0
KNH1 120719Z 14004KT 16/10 A3012 RMK A01 T01630102  RH  067%=      5-min Rain = 0
KNH1 120720Z 14004KT 16/10 A3012 RMK A01 T01640103  RH  067%=      5-min Rain = 0
KNH1 120721Z 14004KT 16/10 A3012 RMK A01 T01630101  RH  067%=      5-min Rain = 0
KNH1 120722Z 15004KT 16/10 A3012 RMK A01 T01640101  RH  066%=      5-min Rain = 0
KNH1 120723Z 15005KT 16/10 A3012 RMK A01 T01640101  RH  066%=      5-min Rain = 0
KNH1 120724Z 15004KT 17/10 A3012 RMK A01 T01650101  RH  066%=      5-min Rain = 0
KNH1 120725Z 15005KT 17/10 A3012 RMK A01 T01650100  RH  066%=      5-min Rain = 0
KNH1 120726Z 15005KT 17/10 A3012 RMK A01 T01660101  RH  065%=      5-min Rain = 0
KNH1 120727Z 15004KT 17/10 A3012 RMK A01 T01670101  RH  065%=      5-min Rain = 0
KNH1 120728Z 15005KT 17/10 A3012 RMK A01 T01680102  RH  065%=      5-min Rain = 0
KNH1 120729Z 15005KT 17/10 A3012 RMK A01 T01690102  RH  064%=      5-min Rain = 0
KNH1 120730Z 15005KT 17/10 A3012 RMK A01 T01690101  RH  064%=      5-min Rain = 0
KNH1 120731Z 15005KT 17/10 A3012 RMK A01 T01700101  RH  064%=      5-min Rain = 0
KNH1 120732Z 15004KT 17/10 A3012 RMK A01 T01710102  RH  064%=      5-min Rain = 0
KNH1 120733Z 15004KT 17/10 A3012 RMK A01 T01710102  RH  064%=      5-min Rain = 0
KNH1 120734Z 15005KT 17/10 A3012 RMK A01 T01710102  RH  064%=      5-min Rain = 0
KNH1 120735Z 15005KT 17/10 A3012 RMK A01 T01700102  RH  064%=      5-min Rain = 0
KNH1 120736Z 15004KT 17/10 A3012 RMK A01 T01700102  RH  064%=      5-min Rain = 0
KNH1 120737Z 15005KT 17/10 A3012 RMK A01 T01690102  RH  064%=      5-min Rain = 0
KNH1 120738Z 15004KT 17/10 A3012 RMK A01 T01690102  RH  065%=      5-min Rain = 0
KNH1 120739Z 15005KT 17/10 A3012 RMK A01 T01690102  RH  065%=      5-min Rain = 0
KNH1 120740Z 15005KT 17/10 A3012 RMK A01 T01680101  RH  065%=      5-min Rain = 0
KNH1 120741Z 15004KT 17/10 A3012 RMK A01 T01680101  RH  064%=      5-min Rain = 0
KNH1 120742Z 15004KT 17/10 A3012 RMK A01 T01690101  RH  064%=      5-min Rain = 0
KNH1 120743Z 15004KT 17/10 A3012 RMK A01 T01690101  RH  064%=      5-min Rain = 0
KNH1 120744Z 16004KT 17/10 A3012 RMK A01 T01690101  RH  064%=      5-min Rain = 0
KNH1 120745Z 16004KT 17/10 A3012 RMK A01 T01700101  RH  064%=      5-min Rain = 0
KNH1 120746Z 15004KT 17/10 A3012 RMK A01 T01700100  RH  064%=      5-min Rain = 0
KNH1 120747Z 16004KT 17/10 A3012 RMK A01 T01710100  RH  063%=      5-min Rain = 0
KNH1 120748Z 16004KT 17/10 A3012 RMK A01 T01710099  RH  063%=      5-min Rain = 0
KNH1 120749Z 15004KT 17/10 A3011 RMK A01 T01720099  RH  062%=      5-min Rain = 0
KNH1 120750Z 16004KT 17/10 A3011 RMK A01 T01730099  RH  062%=      5-min Rain = 0
KNH1 120751Z 16004KT 17/10 A3011 RMK A01 T01730099  RH  062%=      5-min Rain = 0
KNH1 120752Z 16004KT 17/10 A3011 RMK A01 T01740099  RH  061%=      5-min Rain = 0
KNH1 120753Z 16004KT 17/10 A3011 RMK A01 T01740099  RH  061%=      5-min Rain = 0
KNH1 120754Z 16004KT 18/10 A3011 RMK A01 T01750099  RH  061%=      5-min Rain = 0
KNH1 120755Z 16004KT 18/10 A3012 RMK A01 T01750099  RH  061%=      5-min Rain = 0
KNH1 120756Z 16004KT 18/10 A3012 RMK A01 T01760099  RH  060%=      5-min Rain = 0
KNH1 120757Z 16004KT 18/10 A3012 RMK A01 T01770098  RH  060%=      5-min Rain = 0
KNH1 120758Z 16004KT 18/10 A3012 RMK A01 T01770098  RH  060%=      5-min Rain = 0
KNH1 120759Z 16004KT 18/10 A3012 RMK A01 T01770098  RH  060%=      5-min Rain = 0
KNH1 120800Z 16004KT 18/10 A3011 RMK A01 T01770098  RH  060%=      5-min Rain = 0
KNH1 120801Z 16004KT 18/10 A3011 RMK A01 T01760098  RH  060%=      5-min Rain = 0
KNH1 120802Z 16004KT 18/10 A3011 RMK A01 T01760098  RH  060%=      5-min Rain = 0
KNH1 120803Z 16004KT 18/10 A3011 RMK A01 T01760098  RH  060%=      5-min Rain = 0
KNH1 120804Z 17004KT 18/10 A3011 RMK A01 T01750098  RH  060%=      5-min Rain = 0
KNH1 120805Z 16004KT 18/10 A3011 RMK A01 T01750098  RH  060%=      5-min Rain = 0
KNH1 120806Z 16005KT 18/10 A3011 RMK A01 T01750097  RH  060%=      5-min Rain = 0
KNH1 120807Z 16004KT 18/10 A3011 RMK A01 T01760097  RH  060%=      5-min Rain = 0
KNH1 120808Z 17004KT 18/10 A3011 RMK A01 T01760097  RH  060%=      5-min Rain = 0
KNH1 120809Z 17004KT 18/10 A3011 RMK A01 T01770097  RH  059%=      5-min Rain = 0
KNH1 120810Z 17004KT 18/10 A3011 RMK A01 T01770097  RH  059%=      5-min Rain = 0
KNH1 120811Z 17004KT 18/10 A3011 RMK A01 T01770097  RH  059%=      5-min Rain = 0
KNH1 120812Z 17004KT 18/10 A3011 RMK A01 T01780097  RH  059%=      5-min Rain = 0
KNH1 120813Z 17004KT 18/10 A3011 RMK A01 T01780097  RH  059%=      5-min Rain = 0
KNH1 120814Z 17004KT 18/10 A3011 RMK A01 T01770097  RH  059%=      5-min Rain = 0
KNH1 120815Z 17004KT 18/10 A3011 RMK A01 T01760098  RH  060%=      5-min Rain = 0
KNH1 120816Z 17004KT 17/10 A3011 RMK A01 T01740097  RH  060%=      5-min Rain = 0
KNH1 120817Z 17004KT 17/10 A3011 RMK A01 T01730097  RH  061%=      5-min Rain = 0
KNH1 120818Z 17004KT 17/10 A3011 RMK A01 T01720097  RH  061%=      5-min Rain = 0
KNH1 120819Z 17004KT 17/10 A3011 RMK A01 T01710098  RH  062%=      5-min Rain = 0
KNH1 120820Z 17004KT 17/10 A3011 RMK A01 T01700097  RH  062%=      5-min Rain = 0
KNH1 120821Z 17004KT 17/10 A3011 RMK A01 T01690098  RH  063%=      5-min Rain = 0
KNH1 120822Z 18004KT 17/10 A3011 RMK A01 T01680097  RH  063%=      5-min Rain = 0
KNH1 120823Z 18003KT 17/10 A3011 RMK A01 T01670097  RH  063%=      5-min Rain = 0
KNH1 120824Z 18004KT 17/10 A3011 RMK A01 T01680097  RH  063%=      5-min Rain = 0
KNH1 120825Z 18003KT 17/10 A3011 RMK A01 T01680097  RH  063%=      5-min Rain = 0
KNH1 120826Z 18003KT 17/10 A3011 RMK A01 T01670098  RH  063%=      5-min Rain = 0
KNH1 120827Z 18003KT 17/10 A3011 RMK A01 T01650096  RH  064%=      5-min Rain = 0
KNH1 120828Z 19003KT 16/10 A3011 RMK A01 T01620096  RH  065%=      5-min Rain = 0
KNH1 120829Z 19003KT 16/10 A3011 RMK A01 T01610096  RH  066%=      5-min Rain = 0
KNH1 120830Z 20002KT 16/10 A3011 RMK A01 T01600097  RH  066%=      5-min Rain = 0
KNH1 120831Z 21002KT 16/10 A3011 RMK A01 T01590096  RH  066%=      5-min Rain = 0
KNH1 120832Z 21002KT 16/10 A3011 RMK A01 T01580095  RH  066%=      5-min Rain = 0
KNH1 120833Z 21002KT 16/09 A3011 RMK A01 T01550094  RH  067%=      5-min Rain = 0
KNH1 120834Z 21003KT 15/09 A3011 RMK A01 T01540094  RH  068%=      5-min Rain = 0
KNH1 120835Z 21003KT 15/09 A3011 RMK A01 T01530094  RH  068%=      5-min Rain = 0
KNH1 120836Z 20003KT 15/10 A3011 RMK A01 T01520095  RH  069%=      5-min Rain = 0
KNH1 120837Z 20003KT 15/09 A3011 RMK A01 T01510094  RH  069%=      5-min Rain = 0
KNH1 120838Z 20003KT 15/09 A3011 RMK A01 T01500094  RH  069%=      5-min Rain = 0
KNH1 120839Z 20003KT 15/10 A3011 RMK A01 T01500095  RH  070%=      5-min Rain = 0
KNH1 120840Z 20003KT 15/10 A3011 RMK A01 T01500095  RH  070%=      5-min Rain = 0
KNH1 120841Z 20003KT 15/10 A3011 RMK A01 T01520096  RH  069%=      5-min Rain = 0
KNH1 120842Z 20003KT 15/10 A3011 RMK A01 T01530096  RH  069%=      5-min Rain = 0
KNH1 120843Z 19003KT 15/10 A3011 RMK A01 T01540097  RH  069%=      5-min Rain = 0
KNH1 120844Z 19003KT 16/10 A3011 RMK A01 T01550097  RH  068%=      5-min Rain = 0
KNH1 120845Z 20003KT 16/10 A3011 RMK A01 T01560097  RH  068%=      5-min Rain = 0
KNH1 120846Z 20003KT 16/10 A3011 RMK A01 T01560096  RH  068%=      5-min Rain = 0
KNH1 120847Z 20003KT 16/10 A3011 RMK A01 T01560096  RH  067%=      5-min Rain = 0
KNH1 120848Z 21003KT 16/10 A3011 RMK A01 T01560096  RH  067%=      5-min Rain = 0
KNH1 120849Z 21003KT 16/10 A3011 RMK A01 T01560096  RH  068%=      5-min Rain = 0
KNH1 120850Z 21003KT 16/10 A3011 RMK A01 T01560096  RH  068%=      5-min Rain = 0
KNH1 120851Z 22003KT 16/10 A3011 RMK A01 T01550096  RH  068%=      5-min Rain = 0
KNH1 120852Z 22003KT 15/10 A3011 RMK A01 T01540095  RH  068%=      5-min Rain = 0
KNH1 120853Z 22002KT 15/10 A3011 RMK A01 T01540095  RH  068%=      5-min Rain = 0
KNH1 120854Z 22002KT 15/10 A3011 RMK A01 T01530095  RH  068%=      5-min Rain = 0
KNH1 120855Z 21002KT 15/10 A3011 RMK A01 T01520095  RH  068%=      5-min Rain = 0
KNH1 120856Z 20002KT 15/10 A3011 RMK A01 T01520095  RH  069%=      5-min Rain = 0
KNH1 120857Z 20002KT 15/10 A3011 RMK A01 T01520096  RH  069%=      5-min Rain = 0
KNH1 120858Z 20002KT 15/10 A3011 RMK A01 T01520097  RH  070%=      5-min Rain = 0
KNH1 120859Z 20002KT 15/10 A3011 RMK A01 T01520096  RH  070%=      5-min Rain = 0
KNH1 120900Z 20002KT 15/10 A3011 RMK A01 T01510097  RH  070%=      5-min Rain = 0
KNH1 120901Z 20002KT 15/10 A3011 RMK A01 T01510096  RH  070%=      5-min Rain = 0
KNH1 120902Z 20002KT 15/10 A3011 RMK A01 T01500096  RH  070%=      5-min Rain = 0
KNH1 120903Z 20002KT 15/10 A3011 RMK A01 T01500097  RH  070%=      5-min Rain = 0
KNH1 120904Z 20002KT 15/10 A3011 RMK A01 T01500097  RH  071%=      5-min Rain = 0
KNH1 120905Z 20002KT 15/10 A3011 RMK A01 T01500097  RH  071%=      5-min Rain = 0
KNH1 120906Z 20002KT 15/10 A3011 RMK A01 T01500097  RH  071%=      5-min Rain = 0
KNH1 120907Z 20002KT 15/10 A3011 RMK A01 T01500097  RH  071%=      5-min Rain = 0
KNH1 120908Z 21002KT 15/10 A3011 RMK A01 T01500098  RH  071%=      5-min Rain = 0
KNH1 120909Z 21002KT 15/10 A3011 RMK A01 T01500099  RH  071%=      5-min Rain = 0
KNH1 120910Z 23002KT 15/10 A3011 RMK A01 T01500099  RH  072%=      5-min Rain = 0
KNH1 120911Z 24002KT 15/10 A301 RMK A01 T01510100  RH  072%=      5-min Rain = 0
KNH1 120912Z 24002KT 15/10 A301 RMK A01 T01520100  RH  071%=      5-min Rain = 0
KNH1 120913Z 25002KT 15/10 A301 RMK A01 T01520101  RH  072%=      5-min Rain = 0
KNH1 120914Z 26002KT 15/10 A301 RMK A01 T01520103  RH  073%=      5-min Rain = 0
KNH1 120915Z 27002KT 15/10 A301 RMK A01 T01520103  RH  073%=      5-min Rain = 0
KNH1 120916Z 27002KT 15/10 A301 RMK A01 T01510103  RH  073%=      5-min Rain = 0
KNH1 120917Z 27002KT 15/10 A301 RMK A01 T01510102  RH  073%=      5-min Rain = 0
KNH1 120918Z 27002KT 15/10 A301 RMK A01 T01500102  RH  073%=      5-min Rain = 0
KNH1 120919Z 27002KT 15/10 A301 RMK A01 T01500102  RH  073%=      5-min Rain = 0
KNH1 120920Z 28002KT 15/10 A301 RMK A01 T01500101  RH  072%=      5-min Rain = 0
KNH1 120921Z 28002KT 15/10 A301 RMK A01 T01510101  RH  072%=      5-min Rain = 0
KNH1 120922Z 28002KT 15/10 A301 RMK A01 T01510101  RH  072%=      5-min Rain = 0
KNH1 120923Z 28002KT 15/10 A301 RMK A01 T01510101  RH  072%=      5-min Rain = 0
KNH1 120924Z 29002KT 15/10 A301 RMK A01 T01510101  RH  072%=      5-min Rain = 0
KNH1 120925Z 30002KT 15/10 A301 RMK A01 T01500101  RH  072%=      5-min Rain = 0
KNH1 120926Z 30002KT 15/10 A301 RMK A01 T01500101  RH  073%=      5-min Rain = 0
KNH1 120927Z 30002KT 15/10 A301 RMK A01 T01490101  RH  073%=      5-min Rain = 0
KNH1 120928Z 30002KT 15/10 A301 RMK A01 T01480101  RH  073%=      5-min Rain = 0
KNH1 120929Z 30002KT 15/10 A301 RMK A01 T01480100  RH  073%=      5-min Rain = 0
KNH1 120930Z 30002KT 15/10 A301 RMK A01 T01470100  RH  073%=      5-min Rain = 0
KNH1 120931Z 30002KT 15/10 A301 RMK A01 T01470101  RH  074%=      5-min Rain = 0
KNH1 120932Z 30002KT 15/10 A301 RMK A01 T01460101  RH  074%=      5-min Rain = 0
KNH1 120933Z 29002KT 15/10 A301 RMK A01 T01460101  RH  074%=      5-min Rain = 0
KNH1 120934Z 29002KT 15/10 A301 RMK A01 T01460101  RH  075%=      5-min Rain = 0
KNH1 120935Z 29002KT 15/10 A301 RMK A01 T01450101  RH  075%=      5-min Rain = 0
KNH1 120936Z 29002KT 14/10 A301 RMK A01 T01440101  RH  075%=      5-min Rain = 0
KNH1 120937Z 29002KT 14/10 A301 RMK A01 T01440101  RH  075%=      5-min Rain = 0
KNH1 120938Z 29002KT 14/10 A301 RMK A01 T01440101  RH  075%=      5-min Rain = 0
KNH1 120939Z 29002KT 14/10 A301 RMK A01 T01440101  RH  076%=      5-min Rain = 0
KNH1 120940Z 29002KT 14/10 A301 RMK A01 T01440101  RH  075%=      5-min Rain = 0
KNH1 120941Z 30002KT 14/10 A301 RMK A01 T01430100  RH  075%=      5-min Rain = 0
KNH1 120942Z 30002KT 14/10 A301 RMK A01 T01430100  RH  075%=      5-min Rain = 0
KNH1 120943Z 30002KT 14/10 A301 RMK A01 T01430099  RH  075%=      5-min Rain = 0
KNH1 120944Z 30002KT 14/10 A301 RMK A01 T01430100  RH  075%=      5-min Rain = 0
KNH1 120945Z 29002KT 14/10 A301 RMK A01 T01420099  RH  075%=      5-min Rain = 0
KNH1 120946Z 30002KT 14/10 A301 RMK A01 T01420100  RH  075%=      5-min Rain = 0
KNH1 120947Z 30002KT 14/10 A301 RMK A01 T01420100  RH  076%=      5-min Rain = 0
KNH1 120948Z 30002KT 14/10 A301 RMK A01 T01420100  RH  076%=      5-min Rain = 0
KNH1 120949Z 30002KT 14/10 A301 RMK A01 T01420100  RH  076%=      5-min Rain = 0
KNH1 120950Z 29002KT 14/10 A301 RMK A01 T01420100  RH  076%=      5-min Rain = 0
KNH1 120951Z 29002KT 14/10 A301 RMK A01 T01420100  RH  076%=      5-min Rain = 0
KNH1 120952Z 29002KT 14/10 A301 RMK A01 T01420099  RH  076%=      5-min Rain = 0
KNH1 120953Z 30002KT 14/10 A301 RMK A01 T01420099  RH  075%=      5-min Rain = 0
KNH1 120954Z 30002KT 14/10 A301 RMK A01 T01420099  RH  075%=      5-min Rain = 0
KNH1 120955Z 29002KT 14/10 A301 RMK A01 T01420099  RH  075%=      5-min Rain = 0
KNH1 120956Z 29002KT 14/10 A301 RMK A01 T01420099  RH  075%=      5-min Rain = 0
KNH1 120957Z 30002KT 14/10 A301 RMK A01 T01420099  RH  075%=      5-min Rain = 0
KNH1 120958Z 30002KT 14/10 A301 RMK A01 T01420099  RH  075%=      5-min Rain = 0
KNH1 120959Z 30002KT 14/10 A301 RMK A01 T01420098  RH  075%=      5-min Rain = 0
KNH1 121000Z 30001KT 14/10 A301 RMK A01 T01420099  RH  075%=      5-min Rain = 0
KNH1 121001Z 30002KT 14/10 A301 RMK A01 T01420099  RH  075%=      5-min Rain = 0
KNH1 121002Z 30002KT 14/10 A301 RMK A01 T01420099  RH  075%=      5-min Rain = 0
KNH1 121003Z 30002KT 14/10 A301 RMK A01 T01420100  RH  076%=      5-min Rain = 0
KNH1 121004Z 31002KT 14/10 A301 RMK A01 T01420100  RH  076%=      5-min Rain = 0
KNH1 121005Z 31002KT 14/10 A301 RMK A01 T01420100  RH  076%=      5-min Rain = 0
KNH1 121006Z 31002KT 14/10 A301 RMK A01 T01420101  RH  076%=      5-min Rain = 0
KNH1 121007Z 31002KT 14/10 A301 RMK A01 T01420101  RH  076%=      5-min Rain = 0
KNH1 121008Z 31002KT 14/10 A301 RMK A01 T01420101  RH  076%=      5-min Rain = 0
KNH1 121009Z 31002KT 14/10 A301 RMK A01 T01420101  RH  076%=      5-min Rain = 0
KNH1 121010Z 30002KT 14/10 A301 RMK A01 T01420101  RH  076%=      5-min Rain = 0
KNH1 121011Z 30002KT 14/10 A301 RMK A01 T01420100  RH  076%=      5-min Rain = 0
KNH1 121012Z 31002KT 14/10 A301 RMK A01 T01420100  RH  076%=      5-min Rain = 0
KNH1 121013Z 31002KT 14/10 A3009 RMK A01 T01420101  RH  076%=      5-min Rain = 0
KNH1 121014Z 31001KT 14/10 A3009 RMK A01 T01420101  RH  076%=      5-min Rain = 0
KNH1 121015Z 31001KT 14/10 A3009 RMK A01 T01420101  RH  076%=      5-min Rain = 0
KNH1 121016Z 31001KT 14/10 A3009 RMK A01 T01420101  RH  076%=      5-min Rain = 0
KNH1 121017Z 31001KT 14/10 A3009 RMK A01 T01420101  RH  076%=      5-min Rain = 0
KNH1 121018Z 31001KT 14/10 A3009 RMK A01 T01420102  RH  077%=      5-min Rain = 0
KNH1 121019Z 31001KT 14/10 A3009 RMK A01 T01420102  RH  077%=      5-min Rain = 0
KNH1 121020Z 31001KT 14/10 A3009 RMK A01 T01420102  RH  077%=      5-min Rain = 0
KNH1 121021Z 31001KT 14/10 A3009 RMK A01 T01420102  RH  077%=      5-min Rain = 0
KNH1 121022Z 31001KT 14/10 A3009 RMK A01 T01430102  RH  077%=      5-min Rain = 0
KNH1 121023Z 31001KT 14/10 A3009 RMK A01 T01440103  RH  076%=      5-min Rain = 0
KNH1 121024Z 31001KT 14/10 A3009 RMK A01 T01440102  RH  076%=      5-min Rain = 0
KNH1 121025Z 31001KT 15/10 A3009 RMK A01 T01450102  RH  076%=      5-min Rain = 0
KNH1 121026Z 31001KT 15/10 A3009 RMK A01 T01460102  RH  075%=      5-min Rain = 0
KNH1 121027Z 31001KT 15/10 A3009 RMK A01 T01460102  RH  075%=      5-min Rain = 0
KNH1 121028Z 31001KT 15/10 A3009 RMK A01 T01460102  RH  075%=      5-min Rain = 0
KNH1 121029Z 31001KT 15/10 A3009 RMK A01 T01460102  RH  075%=      5-min Rain = 0
KNH1 121030Z 31001KT 15/10 A3009 RMK A01 T01460102  RH  075%=      5-min Rain = 0
KNH1 121031Z 31001KT 15/10 A3009 RMK A01 T01460102  RH  074%=      5-min Rain = 0
KNH1 121032Z 31001KT 15/10 A3009 RMK A01 T01460101  RH  074%=      5-min Rain = 0
KNH1 121033Z 31001KT 15/10 A3009 RMK A01 T01460101  RH  074%=      5-min Rain = 0
KNH1 121034Z 31001KT 15/10 A3009 RMK A01 T01460100  RH  074%=      5-min Rain = 0
KNH1 121035Z 31001KT 15/10 A3009 RMK A01 T01460101  RH  074%=      5-min Rain = 0
KNH1 121036Z 31001KT 15/10 A3009 RMK A01 T01460101  RH  074%=      5-min Rain = 0
KNH1 121037Z 31002KT 15/10 A3009 RMK A01 T01460101  RH  074%=      5-min Rain = 0
KNH1 121038Z 31001KT 15/10 A3009 RMK A01 T01460101  RH  074%=      5-min Rain = 0
KNH1 121039Z 31001KT 15/10 A3009 RMK A01 T01450100  RH  074%=      5-min Rain = 0
KNH1 121040Z 31001KT 14/10 A3009 RMK A01 T01440100  RH  075%=      5-min Rain = 0
KNH1 121041Z 31001KT 14/10 A3009 RMK A01 T01440100  RH  075%=      5-min Rain = 0
KNH1 121042Z 31001KT 14/10 A301 RMK A01 T01440100  RH  075%=      5-min Rain = 0
KNH1 121043Z 31001KT 14/10 A301 RMK A01 T01430100  RH  075%=      5-min Rain = 0
KNH1 121044Z 31000KT 14/10 A301 RMK A01 T01430101  RH  076%=      5-min Rain = 0
KNH1 121045Z 31000KT 14/10 A301 RMK A01 T01430101  RH  076%=      5-min Rain = 0
KNH1 121046Z 31001KT 14/10 A301 RMK A01 T01430101  RH  076%=      5-min Rain = 0
KNH1 121047Z 31000KT 14/10 A301 RMK A01 T01440101  RH  076%=      5-min Rain = 0
KNH1 121048Z 00001KT 14/10 A301 RMK A01 T01440101  RH  075%=      5-min Rain = 0
KNH1 121049Z 01001KT 15/10 A301 RMK A01 T01450101  RH  075%=      5-min Rain = 0
KNH1 121050Z 01001KT 15/10 A301 RMK A01 T01450101  RH  075%=      5-min Rain = 0
KNH1 121051Z 01001KT 15/10 A301 RMK A01 T01450102  RH  075%=      5-min Rain = 0
KNH1 121052Z 01001KT 15/10 A301 RMK A01 T01450102  RH  075%=      5-min Rain = 0
KNH1 121053Z 01001KT 15/10 A301 RMK A01 T01450102  RH  075%=      5-min Rain = 0
KNH1 121054Z 01002KT 15/10 A301 RMK A01 T01450102  RH  075%=      5-min Rain = 0
KNH1 121055Z 01002KT 15/10 A301 RMK A01 T01450102  RH  075%=      5-min Rain = 0
KNH1 121056Z 01002KT 15/10 A301 RMK A01 T01450102  RH  075%=      5-min Rain = 0
KNH1 121057Z 35002KT 15/10 A301 RMK A01 T01450101  RH  075%=      5-min Rain = 0
KNH1 121058Z 34002KT 15/10 A301 RMK A01 T01460102  RH  075%=      5-min Rain = 0
KNH1 121059Z 33002KT 15/10 A301 RMK A01 T01460102  RH  075%=      5-min Rain = 0
KNH1 121100Z 33002KT 15/10 A301 RMK A01 T01460102  RH  075%=      5-min Rain = 0
KNH1 121101Z 33002KT 15/10 A301 RMK A01 T01460101  RH  075%=      5-min Rain = 0
KNH1 121102Z 33001KT 15/10 A301 RMK A01 T01450101  RH  075%=      5-min Rain = 0
KNH1 121103Z 33001KT 14/10 A301 RMK A01 T01440101  RH  075%=      5-min Rain = 0
KNH1 121104Z 33001KT 14/10 A301 RMK A01 T01430102  RH  076%=      5-min Rain = 0
KNH1 121105Z 33001KT 14/10 A301 RMK A01 T01430102  RH  076%=      5-min Rain = 0
KNH1 121106Z 33001KT 14/10 A301 RMK A01 T01420102  RH  077%=      5-min Rain = 0
KNH1 121107Z 33001KT 14/10 A301 RMK A01 T01420102  RH  077%=      5-min Rain = 0
KNH1 121108Z 33002KT 14/10 A301 RMK A01 T01420101  RH  076%=      5-min Rain = 0
KNH1 121109Z 33001KT 14/10 A301 RMK A01 T01420101  RH  076%=      5-min Rain = 0
KNH1 121110Z 33001KT 14/10 A301 RMK A01 T01420101  RH  076%=      5-min Rain = 0
KNH1 121111Z 33001KT 14/10 A301 RMK A01 T01420101  RH  076%=      5-min Rain = 0
KNH1 121112Z 33001KT 14/10 A301 RMK A01 T01420102  RH  076%=      5-min Rain = 0
KNH1 121113Z 33001KT 14/10 A301 RMK A01 T01420102  RH  077%=      5-min Rain = 0
KNH1 121114Z 32002KT 14/10 A301 RMK A01 T01420102  RH  077%=      5-min Rain = 0
KNH1 121115Z 32001KT 14/10 A301 RMK A01 T01420102  RH  077%=      5-min Rain = 0
KNH1 121116Z 32002KT 14/10 A301 RMK A01 T01420102  RH  077%=      5-min Rain = 0
KNH1 121117Z 33001KT 14/10 A301 RMK A01 T01420102  RH  077%=      5-min Rain = 0
KNH1 121118Z 32001KT 14/10 A301 RMK A01 T01420102  RH  077%=      5-min Rain = 0
KNH1 121119Z 32001KT 14/10 A301 RMK A01 T01420102  RH  077%=      5-min Rain = 0
KNH1 121120Z 32001KT 14/10 A301 RMK A01 T01420102  RH  077%=      5-min Rain = 0
KNH1 121121Z 32002KT 14/10 A301 RMK A01 T01410102  RH  077%=      5-min Rain = 0
KNH1 121122Z 33002KT 14/10 A301 RMK A01 T01410103  RH  078%=      5-min Rain = 0
KNH1 121123Z 33002KT 14/10 A301 RMK A01 T01410103  RH  078%=      5-min Rain = 0
KNH1 121124Z 33001KT 14/10 A301 RMK A01 T01410103  RH  078%=      5-min Rain = 0
KNH1 121125Z 33002KT 14/10 A301 RMK A01 T01400103  RH  078%=      5-min Rain = 0
KNH1 121126Z 33002KT 14/10 A301 RMK A01 T01410103  RH  078%=      5-min Rain = 0
KNH1 121127Z 33002KT 14/10 A301 RMK A01 T01410102  RH  078%=      5-min Rain = 0
KNH1 121128Z 33002KT 14/10 A301 RMK A01 T01410103  RH  078%=      5-min Rain = 0
KNH1 121129Z 33002KT 14/10 A301 RMK A01 T01410103  RH  077%=      5-min Rain = 0
KNH1 121130Z 32002KT 14/10 A301 RMK A01 T01420102  RH  077%=      5-min Rain = 0
KNH1 121131Z 32002KT 14/10 A301 RMK A01 T01420102  RH  077%=      5-min Rain = 0
KNH1 121132Z 32002KT 14/10 A301 RMK A01 T01420101  RH  076%=      5-min Rain = 0
KNH1 121133Z 32002KT 14/10 A301 RMK A01 T01420101  RH  076%=      5-min Rain = 0
KNH1 121134Z 32002KT 14/10 A301 RMK A01 T01420101  RH  076%=      5-min Rain = 0
KNH1 121135Z 32002KT 14/10 A301 RMK A01 T01420101  RH  076%=      5-min Rain = 0
KNH1 121136Z 31002KT 14/10 A301 RMK A01 T01420101  RH  077%=      5-min Rain = 0
KNH1 121137Z 32002KT 14/10 A301 RMK A01 T01410101  RH  077%=      5-min Rain = 0
KNH1 121138Z 32001KT 14/10 A301 RMK A01 T01420102  RH  077%=      5-min Rain = 0
KNH1 121139Z 33001KT 14/10 A301 RMK A01 T01410101  RH  077%=      5-min Rain = 0
KNH1 121140Z 33002KT 14/10 A301 RMK A01 T01410101  RH  077%=      5-min Rain = 0
KNH1 121141Z 32002KT 14/10 A301 RMK A01 T01400101  RH  077%=      5-min Rain = 0
KNH1 121142Z 32002KT 14/10 A301 RMK A01 T01400101  RH  077%=      5-min Rain = 0
KNH1 121143Z 31002KT 14/10 A301 RMK A01 T01400101  RH  077%=      5-min Rain = 0
KNH1 121144Z 32002KT 14/10 A301 RMK A01 T01400101  RH  077%=      5-min Rain = 0
KNH1 121145Z 32002KT 14/10 A301 RMK A01 T01390100  RH  077%=      5-min Rain = 0
KNH1 121146Z 34001KT 14/10 A301 RMK A01 T01390100  RH  078%=      5-min Rain = 0
KNH1 121147Z 33002KT 14/10 A301 RMK A01 T01390100  RH  078%=      5-min Rain = 0
KNH1 121148Z 33002KT 14/10 A301 RMK A01 T01380100  RH  078%=      5-min Rain = 0
KNH1 121149Z 33002KT 14/10 A301 RMK A01 T01380100  RH  078%=      5-min Rain = 0
KNH1 121150Z 32002KT 14/10 A301 RMK A01 T01380100  RH  078%=      5-min Rain = 0
KNH1 121151Z 33002KT 14/10 A301 RMK A01 T01370100  RH  078%=      5-min Rain = 0
KNH1 121152Z 33002KT 14/10 A301 RMK A01 T01370101  RH  078%=      5-min Rain = 0
KNH1 121153Z 33002KT 14/10 A301 RMK A01 T01380101  RH  078%=      5-min Rain = 0
KNH1 121154Z 33002KT 14/10 A301 RMK A01 T01380101  RH  078%=      5-min Rain = 0
KNH1 121155Z 33002KT 14/10 A301 RMK A01 T01390101  RH  078%=      5-min Rain = 0
KNH1 121156Z 33002KT 14/10 A301 RMK A01 T01400101  RH  078%=      5-min Rain = 0
KNH1 121157Z 34002KT 14/10 A301 RMK A01 T01390101  RH  077%=      5-min Rain = 0
KNH1 121158Z 34002KT 14/10 A301 RMK A01 T01400101  RH  077%=      5-min Rain = 0
KNH1 121159Z 34002KT 14/10 A301 RMK A01 T01400101  RH  077%=      5-min Rain = 0
KNH1 121200Z 34003KT 14/10 A301 RMK A01 T01400101  RH  077%=      5-min Rain = 0
KNH1 121201Z 34003KT 14/10 A301 RMK A01 T01400101  RH  077%=      5-min Rain = 0
KNH1 121202Z 34003KT 14/10 A301 RMK A01 T01400101  RH  077%=      5-min Rain = 0
KNH1 121203Z 34003KT 14/10 A301 RMK A01 T01400101  RH  077%=      5-min Rain = 0
KNH1 121204Z 34003KT 14/10 A301 RMK A01 T01400100  RH  077%=      5-min Rain = 0
KNH1 121205Z 34003KT 14/10 A301 RMK A01 T01400100  RH  077%=      5-min Rain = 0
KNH1 121206Z 34003KT 14/10 A301 RMK A01 T01390100  RH  077%=      5-min Rain = 0
KNH1 121207Z 34003KT 14/10 A301 RMK A01 T01400100  RH  077%=      5-min Rain = 0
KNH1 121208Z 35003KT 14/10 A301 RMK A01 T01390100  RH  077%=      5-min Rain = 0
KNH1 121209Z 35003KT 14/10 A301 RMK A01 T01390100  RH  077%=      5-min Rain = 0
KNH1 121210Z 35003KT 14/10 A301 RMK A01 T01390100  RH  077%=      5-min Rain = 0
KNH1 121211Z 36003KT 14/10 A301 RMK A01 T01390100  RH  077%=      5-min Rain = 0
KNH1 121212Z 00003KT 14/10 A301 RMK A01 T01390100  RH  077%=      5-min Rain = 0
KNH1 121213Z 00003KT 14/10 A301 RMK A01 T01390100  RH  077%=      5-min Rain = 0
KNH1 121214Z 00002KT 14/10 A301 RMK A01 T01390100  RH  077%=      5-min Rain = 0
KNH1 121215Z 00002KT 14/10 A301 RMK A01 T01390100  RH  077%=      5-min Rain = 0
KNH1 121216Z 00002KT 14/10 A301 RMK A01 T01390100  RH  077%=      5-min Rain = 0
KNH1 121217Z 00002KT 14/10 A301 RMK A01 T01390099  RH  077%=      5-min Rain = 0
KNH1 121218Z 00002KT 14/10 A301 RMK A01 T01390099  RH  077%=      5-min Rain = 0
KNH1 121219Z 00002KT 14/10 A301 RMK A01 T01400099  RH  076%=      5-min Rain = 0
KNH1 121220Z 00002KT 14/10 A301 RMK A01 T01400099  RH  076%=      5-min Rain = 0
KNH1 121221Z 00002KT 14/10 A301 RMK A01 T01400099  RH  076%=      5-min Rain = 0
KNH1 121222Z 00002KT 14/10 A301 RMK A01 T01400099  RH  076%=      5-min Rain = 0
KNH1 121223Z 01002KT 14/10 A301 RMK A01 T01400099  RH  076%=      5-min Rain = 0
KNH1 121224Z 01002KT 14/10 A301 RMK A01 T01400100  RH  076%=      5-min Rain = 0
KNH1 121225Z 02002KT 14/10 A301 RMK A01 T01400099  RH  076%=      5-min Rain = 0
KNH1 121226Z 02002KT 14/10 A301 RMK A01 T01400099  RH  076%=      5-min Rain = 0
KNH1 121227Z 02002KT 14/10 A301 RMK A01 T01410099  RH  076%=      5-min Rain = 0
KNH1 121228Z 02002KT 14/10 A301 RMK A01 T01410099  RH  076%=      5-min Rain = 0
KNH1 121229Z 02002KT 14/10 A301 RMK A01 T01410099  RH  076%=      5-min Rain = 0
KNH1 121230Z 02002KT 14/10 A3011 RMK A01 T01410099  RH  076%=      5-min Rain = 0
KNH1 121231Z 02002KT 14/10 A3011 RMK A01 T01410099  RH  076%=      5-min Rain = 0
KNH1 121232Z 02002KT 14/10 A3011 RMK A01 T01420099  RH  076%=      5-min Rain = 0
KNH1 121233Z 02001KT 14/10 A3011 RMK A01 T01420100  RH  076%=      5-min Rain = 0
KNH1 121234Z 02001KT 14/10 A3011 RMK A01 T01420099  RH  076%=      5-min Rain = 0
KNH1 121235Z 00002KT 14/10 A3011 RMK A01 T01420099  RH  075%=      5-min Rain = 0
KNH1 121236Z 35002KT 14/10 A3011 RMK A01 T01430099  RH  075%=      5-min Rain = 0
KNH1 121237Z 33002KT 14/10 A3011 RMK A01 T01420099  RH  075%=      5-min Rain = 0
KNH1 121238Z 33002KT 14/10 A3011 RMK A01 T01420101  RH  076%=      5-min Rain = 0
KNH1 121239Z 33002KT 14/10 A3011 RMK A01 T01410100  RH  076%=      5-min Rain = 0
KNH1 121240Z 33003KT 14/10 A3011 RMK A01 T01410102  RH  077%=      5-min Rain = 0
KNH1 121241Z 34003KT 14/10 A3011 RMK A01 T01400102  RH  078%=      5-min Rain = 0
KNH1 121242Z 34003KT 14/10 A3011 RMK A01 T01390101  RH  078%=      5-min Rain = 0
KNH1 121243Z 34003KT 14/10 A3011 RMK A01 T01390101  RH  078%=      5-min Rain = 0
KNH1 121244Z 33003KT 14/10 A3011 RMK A01 T01390101  RH  078%=      5-min Rain = 0
KNH1 121245Z 33003KT 14/10 A301 RMK A01 T01390101  RH  078%=      5-min Rain = 0
KNH1 121246Z 33002KT 14/10 A301 RMK A01 T01380101  RH  078%=      5-min Rain = 0
KNH1 121247Z 33002KT 14/10 A3011 RMK A01 T01380101  RH  078%=      5-min Rain = 0
KNH1 121248Z 33002KT 14/10 A301 RMK A01 T01380101  RH  079%=      5-min Rain = 0
KNH1 121249Z 33001KT 14/10 A301 RMK A01 T01380101  RH  079%=      5-min Rain = 0
KNH1 121250Z 33002KT 14/10 A301 RMK A01 T01370101  RH  079%=      5-min Rain = 0
KNH1 121251Z 33001KT 14/10 A301 RMK A01 T01370101  RH  079%=      5-min Rain = 0
KNH1 121252Z 33002KT 14/10 A301 RMK A01 T01370101  RH  079%=      5-min Rain = 0
KNH1 121253Z 33002KT 14/10 A301 RMK A01 T01370101  RH  079%=      5-min Rain = 0
KNH1 121254Z 33002KT 14/10 A301 RMK A01 T01370101  RH  079%=      5-min Rain = 0
KNH1 121255Z 33002KT 14/10 A301 RMK A01 T01370101  RH  079%=      5-min Rain = 0
KNH1 121256Z 33002KT 14/10 A301 RMK A01 T01370101  RH  079%=      5-min Rain = 0
KNH1 121257Z 33002KT 14/10 A301 RMK A01 T01370102  RH  079%=      5-min Rain = 0
KNH1 121258Z 33002KT 14/10 A301 RMK A01 T01370103  RH  080%=      5-min Rain = 0
KNH1 121259Z 32002KT 14/10 A301 RMK A01 T01370103  RH  080%=      5-min Rain = 0
KNH1 121300Z 33002KT 14/10 A301 RMK A01 T01370103  RH  080%=      5-min Rain = 0
KNH1 121301Z 32002KT 14/10 A3011 RMK A01 T01370104  RH  080%=      5-min Rain = 0
KNH1 121302Z 32001KT 14/10 A3011 RMK A01 T01380104  RH  080%=      5-min Rain = 0
KNH1 121303Z 33002KT 14/10 A3011 RMK A01 T01380104  RH  080%=      5-min Rain = 0
KNH1 121304Z 33002KT 14/10 A3011 RMK A01 T01390103  RH  079%=      5-min Rain = 0
KNH1 121305Z 33003KT 14/10 A3011 RMK A01 T01400103  RH  078%=      5-min Rain = 0
KNH1 121306Z 33003KT 14/10 A3011 RMK A01 T01410103  RH  078%=      5-min Rain = 0
KNH1 121307Z 33002KT 14/10 A3011 RMK A01 T01410103  RH  078%=      5-min Rain = 0
KNH1 121308Z 33003KT 14/10 A3011 RMK A01 T01420104  RH  078%=      5-min Rain = 0
KNH1 121309Z 33002KT 14/11 A3011 RMK A01 T01430105  RH  078%=      5-min Rain = 0
KNH1 121310Z 34002KT 14/10 A3011 RMK A01 T01440104  RH  077%=      5-min Rain = 0
KNH1 121311Z 33003KT 15/10 A3011 RMK A01 T01450103  RH  076%=      5-min Rain = 0
KNH1 121312Z 33004KT 15/10 A3011 RMK A01 T01460102  RH  075%=      5-min Rain = 0
KNH1 121313Z 33003KT 15/10 A3011 RMK A01 T01470103  RH  075%=      5-min Rain = 0
KNH1 121314Z 33003KT 15/10 A3011 RMK A01 T01480103  RH  075%=      5-min Rain = 0
KNH1 121315Z 34003KT 15/10 A3011 RMK A01 T01490104  RH  074%=      5-min Rain = 0
KNH1 121316Z 34003KT 15/11 A3011 RMK A01 T01500105  RH  074%=      5-min Rain = 0
KNH1 121317Z 34003KT 15/11 A3011 RMK A01 T01510105  RH  074%=      5-min Rain = 0
KNH1 121318Z 34003KT 15/11 A3011 RMK A01 T01510105  RH  074%=      5-min Rain = 0
KNH1 121319Z 34004KT 15/10 A3011 RMK A01 T01530104  RH  073%=      5-min Rain = 0
KNH1 121320Z 34003KT 15/10 A3011 RMK A01 T01530104  RH  072%=      5-min Rain = 0
KNH1 121321Z 34004KT 15/10 A3011 RMK A01 T01540104  RH  072%=      5-min Rain = 0
KNH1 121322Z 34003KT 16/10 A3011 RMK A01 T01550104  RH  071%=      5-min Rain = 0
KNH1 121323Z 35003KT 16/10 A3011 RMK A01 T01560104  RH  071%=      5-min Rain = 0
KNH1 121324Z 34003KT 16/11 A3011 RMK A01 T01560105  RH  071%=      5-min Rain = 0
KNH1 121325Z 35003KT 16/11 A3011 RMK A01 T01570105  RH  071%=      5-min Rain = 0
KNH1 121326Z 34003KT 16/11 A3011 RMK A01 T01580105  RH  071%=      5-min Rain = 0
KNH1 121327Z 34003KT 16/11 A3011 RMK A01 T01580105  RH  071%=      5-min Rain = 0
KNH1 121328Z 35002KT 16/11 A3011 RMK A01 T01590106  RH  070%=      5-min Rain = 0
KNH1 121329Z 35003KT 16/11 A3011 RMK A01 T01600106  RH  070%=      5-min Rain = 0
KNH1 121330Z 35003KT 16/11 A3011 RMK A01 T01610106  RH  070%=      5-min Rain = 0
KNH1 121331Z 35003KT 16/11 A3011 RMK A01 T01620107  RH  069%=      5-min Rain = 0
KNH1 121332Z 36003KT 16/11 A3011 RMK A01 T01630106  RH  069%=      5-min Rain = 0
KNH1 121333Z 36003KT 16/11 A3011 RMK A01 T01640106  RH  069%=      5-min Rain = 0
KNH1 121334Z 36003KT 17/11 A3011 RMK A01 T01650107  RH  068%=      5-min Rain = 0
KNH1 121335Z 35003KT 17/11 A3011 RMK A01 T01670107  RH  068%=      5-min Rain = 0
KNH1 121336Z 00002KT 17/11 A3011 RMK A01 T01680108  RH  068%=      5-min Rain = 0
KNH1 121337Z 36002KT 17/11 A3011 RMK A01 T01690108  RH  067%=      5-min Rain = 0
KNH1 121338Z 00002KT 17/11 A3011 RMK A01 T01700109  RH  067%=      5-min Rain = 0
KNH1 121339Z 00002KT 17/11 A3011 RMK A01 T01720108  RH  066%=      5-min Rain = 0
KNH1 121340Z 01002KT 17/11 A3011 RMK A01 T01730108  RH  065%=      5-min Rain = 0
KNH1 121341Z 36002KT 18/11 A3011 RMK A01 T01750108  RH  065%=      5-min Rain = 0
KNH1 121342Z 01001KT 18/11 A3011 RMK A01 T01760109  RH  065%=      5-min Rain = 0
KNH1 121343Z 02001KT 18/11 A3011 RMK A01 T01770109  RH  064%=      5-min Rain = 0
KNH1 121344Z 01001KT 18/11 A3011 RMK A01 T01790107  RH  063%=      5-min Rain = 0
KNH1 121345Z 01001KT 18/11 A3011 RMK A01 T01800107  RH  062%=      5-min Rain = 0
KNH1 121346Z 01001KT 18/11 A3011 RMK A01 T01810106  RH  061%=      5-min Rain = 0
KNH1 121347Z 01001KT 18/11 A3011 RMK A01 T01830107  RH  061%=      5-min Rain = 0
KNH1 121348Z 01001KT 19/11 A3011 RMK A01 T01850107  RH  060%=      5-min Rain = 0
KNH1 121349Z 02001KT 19/11 A3011 RMK A01 T01860106  RH  059%=      5-min Rain = 0
KNH1 121350Z 05001KT 19/11 A3011 RMK A01 T01870107  RH  060%=      5-min Rain = 0
KNH1 121351Z 05001KT 19/11 A3011 RMK A01 T01890108  RH  059%=      5-min Rain = 0
KNH1 121352Z 05001KT 19/11 A3011 RMK A01 T01900107  RH  059%=      5-min Rain = 0
KNH1 121353Z 04001KT 19/11 A3011 RMK A01 T01910108  RH  058%=      5-min Rain = 0
KNH1 121354Z 04001KT 19/11 A3011 RMK A01 T01910108  RH  058%=      5-min Rain = 0
KNH1 121355Z 03001KT 19/11 A3011 RMK A01 T01920107  RH  058%=      5-min Rain = 0
KNH1 121356Z 03001KT 19/11 A3011 RMK A01 T01940107  RH  057%=      5-min Rain = 0
KNH1 121357Z 04001KT 20/11 A3011 RMK A01 T01950108  RH  057%=      5-min Rain = 0
KNH1 121358Z 03001KT 20/11 A3011 RMK A01 T01960107  RH  056%=      5-min Rain = 0
KNH1 121359Z 01000KT 20/11 A3011 RMK A01 T01960106  RH  056%=      5-min Rain = 0
KNH1 121400Z 00001KT 20/11 A3011 RMK A01 T01970107  RH  056%=      5-min Rain = 0
KNH1 121401Z 03000KT 20/11 A3011 RMK A01 T01980105  RH  055%=      5-min Rain = 0
KNH1 121402Z 01001KT 20/11 A3011 RMK A01 T01980105  RH  055%=      5-min Rain = 0
KNH1 121403Z 02001KT 20/10 A3011 RMK A01 T01990103  RH  054%=      5-min Rain = 0
KNH1 121404Z 01001KT 20/10 A3011 RMK A01 T02000103  RH  054%=      5-min Rain = 0
KNH1 121405Z 02000KT 20/10 A3011 RMK A01 T02010104  RH  054%=      5-min Rain = 0
KNH1 121406Z 04000KT 20/11 A3011 RMK A01 T02010105  RH  054%=      5-min Rain = 0
KNH1 121407Z 00000KT 20/11 A3011 RMK A01 T02030106  RH  054%=      5-min Rain = 0
KNH1 121408Z 09000KT 20/11 A3011 RMK A01 T02030105  RH  053%=      5-min Rain = 0
KNH1 121409Z 07001KT 20/11 A3011 RMK A01 T02040108  RH  054%=      5-min Rain = 0
KNH1 121410Z 06001KT 21/11 A3011 RMK A01 T02050106  RH  053%=      5-min Rain = 0
KNH1 121411Z 08001KT 21/11 A3011 RMK A01 T02060105  RH  052%=      5-min Rain = 0
KNH1 121412Z 06001KT 21/10 A3011 RMK A01 T02070104  RH  052%=      5-min Rain = 0
KNH1 121413Z 06001KT 21/10 A3011 RMK A01 T02070103  RH  051%=      5-min Rain = 0
KNH1 121414Z 07000KT 21/10 A3011 RMK A01 T02070102  RH  051%=      5-min Rain = 0
KNH1 121415Z 12000KT 21/10 A3011 RMK A01 T02080102  RH  051%=      5-min Rain = 0
KNH1 121416Z 14000KT 21/10 A3011 RMK A01 T02090101  RH  050%=      5-min Rain = 0
KNH1 121417Z 12000KT 21/10 A3011 RMK A01 T02100102  RH  050%=      5-min Rain = 0
KNH1 121418Z 00000KT 21/10 A3011 RMK A01 T02120103  RH  050%=      5-min Rain = 0
KNH1 121419Z 14000KT 21/10 A3011 RMK A01 T02130101  RH  049%=      5-min Rain = 0
KNH1 121420Z 23000KT 21/10 A3011 RMK A01 T02140100  RH  048%=      5-min Rain = 0
KNH1 121421Z 23000KT 21/10 A3011 RMK A01 T02140101  RH  048%=      5-min Rain = 0
KNH1 121422Z 23001KT 21/10 A3011 RMK A01 T02140102  RH  049%=      5-min Rain = 0
KNH1 121423Z 24000KT 21/10 A3011 RMK A01 T02130102  RH  049%=      5-min Rain = 0
KNH1 121424Z 24000KT 21/10 A3011 RMK A01 T02130102  RH  049%=      5-min Rain = 0
KNH1 121425Z 00000KT 21/10 A3011 RMK A01 T02120102  RH  049%=      5-min Rain = 0
KNH1 121426Z 00000KT 21/10 A3011 RMK A01 T02130103  RH  049%=      5-min Rain = 0
KNH1 121427Z 00000KT 22/10 A3011 RMK A01 T02150104  RH  049%=      5-min Rain = 0
KNH1 121428Z 00000KT 22/10 A3011 RMK A01 T02170104  RH  049%=      5-min Rain = 0
KNH1 121429Z 13000KT 22/11 A3011 RMK A01 T02180106  RH  049%=      5-min Rain = 0
KNH1 121430Z 13002KT 22/11 A3011 RMK A01 T02190108  RH  049%=      5-min Rain = 0
KNH1 121431Z 16001KT 22/11 A3011 RMK A01 T02190107  RH  049%=      5-min Rain = 0
KNH1 121432Z 15001KT 22/11 A3011 RMK A01 T02210107  RH  048%=      5-min Rain = 0
KNH1 121433Z 14002KT 22/11 A3011 RMK A01 T02210105  RH  048%=      5-min Rain = 0
KNH1 121434Z 14001KT 22/11 A3011 RMK A01 T02210106  RH  048%=      5-min Rain = 0
KNH1 121435Z 14002KT 22/11 A3011 RMK A01 T02220107  RH  048%=      5-min Rain = 0
KNH1 121436Z 14001KT 22/11 A3011 RMK A01 T02220106  RH  048%=      5-min Rain = 0
KNH1 121437Z 13001KT 22/11 A3011 RMK A01 T02220107  RH  048%=      5-min Rain = 0
KNH1 121438Z 16001KT 22/11 A3011 RMK A01 T02220108  RH  048%=      5-min Rain = 0
KNH1 121439Z 19001KT 22/11 A3011 RMK A01 T02220107  RH  048%=      5-min Rain = 0
KNH1 121440Z 19001KT 22/11 A3011 RMK A01 T02200107  RH  049%=      5-min Rain = 0
KNH1 121441Z 19001KT 22/11 A3011 RMK A01 T02190107  RH  049%=      5-min Rain = 0
KNH1 121442Z 22001KT 22/11 A3011 RMK A01 T02190109  RH  050%=      5-min Rain = 0
KNH1 121443Z 22002KT 22/11 A3011 RMK A01 T02190108  RH  049%=      5-min Rain = 0
KNH1 121444Z 22001KT 22/11 A3011 RMK A01 T02180107  RH  049%=      5-min Rain = 0
KNH1 121445Z 19001KT 22/11 A3011 RMK A01 T02180109  RH  050%=      5-min Rain = 0
KNH1 121446Z 19001KT 22/11 A3011 RMK A01 T02190110  RH  050%=      5-min Rain = 0
KNH1 121447Z 19001KT 22/11 A3011 RMK A01 T02200109  RH  049%=      5-min Rain = 0
KNH1 121448Z 16001KT 22/11 A3011 RMK A01 T02200108  RH  049%=      5-min Rain = 0
KNH1 121449Z 14001KT 22/11 A3011 RMK A01 T02220108  RH  048%=      5-min Rain = 0
KNH1 121450Z 17001KT 22/11 A3011 RMK A01 T02230108  RH  048%=      5-min Rain = 0
KNH1 121451Z 19002KT 23/11 A3011 RMK A01 T02250110  RH  048%=      5-min Rain = 0
KNH1 121452Z 19001KT 23/11 A3011 RMK A01 T02250109  RH  048%=      5-min Rain = 0
KNH1 121453Z 25001KT 23/11 A3011 RMK A01 T02250111  RH  048%=      5-min Rain = 0
KNH1 121454Z 24001KT 23/11 A3011 RMK A01 T02260112  RH  049%=      5-min Rain = 0
KNH1 121455Z 25001KT 23/11 A3011 RMK A01 T02270112  RH  048%=      5-min Rain = 0
KNH1 121456Z 25001KT 23/11 A3011 RMK A01 T02290112  RH  048%=      5-min Rain = 0
KNH1 121457Z 21001KT 23/11 A3011 RMK A01 T02290112  RH  047%=      5-min Rain = 0
KNH1 121458Z 23002KT 23/11 A3011 RMK A01 T02300113  RH  048%=      5-min Rain = 0
KNH1 121459Z 21001KT 23/11 A3011 RMK A01 T02310112  RH  047%=      5-min Rain = 0
KNH1 121500Z 20002KT 23/11 A3011 RMK A01 T02320113  RH  047%=      5-min Rain = 0
KNH1 121501Z 21002KT 23/11 A3011 RMK A01 T02320112  RH  047%=      5-min Rain = 0
KNH1 121502Z 21002KT 23/11 A3011 RMK A01 T02320112  RH  047%=      5-min Rain = 0
KNH1 121503Z 22001KT 23/11 A3011 RMK A01 T02310110  RH  046%=      5-min Rain = 0
KNH1 121504Z 22000KT 23/11 A3011 RMK A01 T02310110  RH  046%=      5-min Rain = 0
KNH1 121505Z 15001KT 23/11 A3011 RMK A01 T02330114  RH  047%=      5-min Rain = 0
KNH1 121506Z 14001KT 24/12 A3011 RMK A01 T02350117  RH  047%=      5-min Rain = 0
KNH1 121507Z 20003KT 24/11 A3011 RMK A01 T02370113  RH  046%=      5-min Rain = 0
KNH1 121508Z 20002KT 24/11 A3011 RMK A01 T02380108  RH  044%=      5-min Rain = 0
KNH1 121509Z 21002KT 24/11 A3011 RMK A01 T02370108  RH  044%=      5-min Rain = 0
KNH1 121510Z 18001KT 24/11 A3011 RMK A01 T02360108  RH  045%=      5-min Rain = 0
KNH1 121511Z 19001KT 24/11 A3011 RMK A01 T02370110  RH  045%=      5-min Rain = 0
KNH1 121512Z 17000KT 24/11 A3011 RMK A01 T02380111  RH  045%=      5-min Rain = 0
KNH1 121513Z 21002KT 24/11 A3011 RMK A01 T02410113  RH  045%=      5-min Rain = 0
KNH1 121514Z 21002KT 24/11 A3011 RMK A01 T02410112  RH  044%=      5-min Rain = 0
KNH1 121515Z 22002KT 24/11 A3011 RMK A01 T02410110  RH  044%=      5-min Rain = 0
KNH1 121516Z 22003KT 24/11 A3011 RMK A01 T02400112  RH  044%=      5-min Rain = 0
KNH1 121517Z 22002KT 24/11 A3011 RMK A01 T02400110  RH  044%=      5-min Rain = 0
KNH1 121518Z 21002KT 24/11 A3011 RMK A01 T02400111  RH  044%=      5-min Rain = 0
KNH1 121519Z 23002KT 24/11 A3011 RMK A01 T02400111  RH  044%=      5-min Rain = 0
KNH1 121520Z 22002KT 24/11 A3011 RMK A01 T02410110  RH  044%=      5-min Rain = 0
KNH1 121521Z 20001KT 24/11 A3011 RMK A01 T02410111  RH  044%=      5-min Rain = 0
KNH1 121522Z 19001KT 24/11 A3011 RMK A01 T02430110  RH  043%=      5-min Rain = 0
KNH1 121523Z 30002KT 24/11 A3011 RMK A01 T02440111  RH  043%=      5-min Rain = 0
KNH1 121524Z 27003KT 24/11 A3011 RMK A01 T02440113  RH  044%=      5-min Rain = 0
KNH1 121525Z 26002KT 25/11 A3011 RMK A01 T02450114  RH  044%=      5-min Rain = 0
KNH1 121526Z 28003KT 25/12 A3011 RMK A01 T02450118  RH  045%=      5-min Rain = 0
KNH1 121527Z 27003KT 25/12 A3011 RMK A01 T02470117  RH  044%=      5-min Rain = 0
KNH1 121528Z 28003KT 25/12 A3011 RMK A01 T02480116  RH  044%=      5-min Rain = 0
KNH1 121529Z 30003KT 25/12 A3011 RMK A01 T02470115  RH  043%=      5-min Rain = 0
KNH1 121530Z 31002KT 25/12 A3011 RMK A01 T02460115  RH  044%=      5-min Rain = 0
KNH1 121531Z 31002KT 25/12 A3011 RMK A01 T02460116  RH  044%=      5-min Rain = 0
KNH1 121532Z 31002KT 25/12 A3011 RMK A01 T02460117  RH  044%=      5-min Rain = 0
KNH1 121533Z 28003KT 25/12 A3011 RMK A01 T02470115  RH  043%=      5-min Rain = 0
KNH1 121534Z 28002KT 25/11 A3011 RMK A01 T02490112  RH  042%=      5-min Rain = 0
KNH1 121535Z 29002KT 25/11 A3011 RMK A01 T02500108  RH  041%=      5-min Rain = 0
KNH1 121536Z 28002KT 25/11 A3011 RMK A01 T02480110  RH  042%=      5-min Rain = 0
KNH1 121537Z 29003KT 25/11 A3011 RMK A01 T02480112  RH  042%=      5-min Rain = 0
KNH1 121538Z 29003KT 25/11 A3011 RMK A01 T02480112  RH  042%=      5-min Rain = 0
KNH1 121539Z 29003KT 25/11 A3011 RMK A01 T02480112  RH  043%=      5-min Rain = 0
KNH1 121540Z 32002KT 25/11 A3011 RMK A01 T02480112  RH  042%=      5-min Rain = 0
KNH1 121541Z 33002KT 25/11 A3011 RMK A01 T02500111  RH  042%=      5-min Rain = 0
KNH1 121542Z 35001KT 25/11 A3011 RMK A01 T02500111  RH  042%=      5-min Rain = 0
KNH1 121543Z 18001KT 25/11 A3011 RMK A01 T02510113  RH  042%=      5-min Rain = 0
KNH1 121544Z 29001KT 25/11 A3011 RMK A01 T02540113  RH  041%=      5-min Rain = 0
KNH1 121545Z 25002KT 26/11 A3011 RMK A01 T02550113  RH  041%=      5-min Rain = 0
KNH1 121546Z 25003KT 26/12 A3011 RMK A01 T02550116  RH  042%=      5-min Rain = 0
KNH1 121547Z 28002KT 26/12 A3011 RMK A01 T02550117  RH  042%=      5-min Rain = 0
KNH1 121548Z 31003KT 26/11 A3011 RMK A01 T02550113  RH  041%=      5-min Rain = 0
KNH1 121549Z 29004KT 26/11 A3011 RMK A01 T02550113  RH  041%=      5-min Rain = 0
KNH1 121550Z 29004KT 26/11 A3011 RMK A01 T02550114  RH  041%=      5-min Rain = 0
KNH1 121551Z 27003KT 26/11 A3011 RMK A01 T02550113  RH  041%=      5-min Rain = 0
KNH1 121552Z 25002KT 25/11 A3011 RMK A01 T02540110  RH  040%=      5-min Rain = 0
KNH1 121553Z 29001KT 25/11 A3011 RMK A01 T02530108  RH  040%=      5-min Rain = 0
KNH1 121554Z 31002KT 25/11 A3011 RMK A01 T02530108  RH  040%=      5-min Rain = 0
KNH1 121555Z 33001KT 25/11 A3011 RMK A01 T02530107  RH  040%=      5-min Rain = 0
KNH1 121556Z 11001KT 25/11 A3011 RMK A01 T02540108  RH  040%=      5-min Rain = 0
KNH1 121557Z 35001KT 26/11 A3011 RMK A01 T02550111  RH  040%=      5-min Rain = 0
KNH1 121558Z 29002KT 26/11 A3011 RMK A01 T02570110  RH  040%=      5-min Rain = 0
KNH1 121559Z 32003KT 26/11 A3011 RMK A01 T02600111  RH  039%=      5-min Rain = 0
KNH1 121600Z 31002KT 26/11 A3011 RMK A01 T02620111  RH  039%=      5-min Rain = 0
KNH1 121601Z 26003KT 26/11 A3011 RMK A01 T02630110  RH  038%=      5-min Rain = 0
KNH1 121602Z 29002KT 26/11 A3011 RMK A01 T02610108  RH  038%=      5-min Rain = 0
KNH1 121603Z 32000KT 26/11 A3011 RMK A01 T02600108  RH  039%=      5-min Rain = 0
KNH1 121604Z 29000KT 26/11 A3011 RMK A01 T02590108  RH  039%=      5-min Rain = 0
KNH1 121605Z 25002KT 26/11 A3011 RMK A01 T02610112  RH  039%=      5-min Rain = 0
KNH1 121606Z 26003KT 26/11 A3011 RMK A01 T02610112  RH  039%=      5-min Rain = 0
KNH1 121607Z 27003KT 26/11 A3011 RMK A01 T02600113  RH  040%=      5-min Rain = 0
KNH1 121608Z 30002KT 26/11 A3011 RMK A01 T02590112  RH  040%=      5-min Rain = 0
KNH1 121609Z 30001KT 26/11 A3011 RMK A01 T02580111  RH  040%=      5-min Rain = 0
KNH1 121610Z 27000KT 26/11 A3011 RMK A01 T02570111  RH  040%=      5-min Rain = 0
KNH1 121611Z 19000KT 26/11 A3011 RMK A01 T02590113  RH  040%=      5-min Rain = 0
KNH1 121612Z 32001KT 26/12 A3011 RMK A01 T02620115  RH  040%=      5-min Rain = 0
KNH1 121613Z 32002KT 26/12 A3011 RMK A01 T02640116  RH  040%=      5-min Rain = 0
KNH1 121614Z 32002KT 26/12 A3011 RMK A01 T02640116  RH  039%=      5-min Rain = 0
KNH1 121615Z 31001KT 27/12 A301 RMK A01 T02660116  RH  039%=      5-min Rain = 0
KNH1 121616Z 26002KT 27/12 A301 RMK A01 T02670116  RH  039%=      5-min Rain = 0
KNH1 121617Z 27004KT 27/12 A301 RMK A01 T02680115  RH  039%=      5-min Rain = 0
KNH1 121618Z 27003KT 27/12 A301 RMK A01 T02670115  RH  039%=      5-min Rain = 0
KNH1 121619Z 32002KT 27/11 A301 RMK A01 T02650113  RH  039%=      5-min Rain = 0
KNH1 121620Z 23004KT 26/11 A301 RMK A01 T02630114  RH  039%=      5-min Rain = 0
KNH1 121621Z 24004KT 26/12 A301 RMK A01 T02630116  RH  040%=      5-min Rain = 0
KNH1 121622Z 24003KT 26/12 A301 RMK A01 T02630115  RH  040%=      5-min Rain = 0
KNH1 121623Z 22002KT 26/12 A301 RMK A01 T02620115  RH  040%=      5-min Rain = 0
KNH1 121624Z 29001KT 26/11 A301 RMK A01 T02610113  RH  040%=      5-min Rain = 0
KNH1 121625Z 32001KT 26/11 A301 RMK A01 T02610114  RH  040%=      5-min Rain = 0
KNH1 121626Z 24001KT 26/12 A301 RMK A01 T02640117  RH  040%=      5-min Rain = 0
KNH1 121627Z 30002KT 27/12 A301 RMK A01 T02670118  RH  039%=      5-min Rain = 0
KNH1 121628Z 32002KT 27/12 A301 RMK A01 T02700119  RH  039%=      5-min Rain = 0
KNH1 121629Z 31002KT 27/12 A301 RMK A01 T02730118  RH  038%=      5-min Rain = 0
KNH1 121630Z 27001KT 27/12 A301 RMK A01 T02730120  RH  038%=      5-min Rain = 0
KNH1 121631Z 26003KT 27/12 A301 RMK A01 T02740121  RH  039%=      5-min Rain = 0
KNH1 121632Z 26003KT 27/12 A301 RMK A01 T02730119  RH  038%=      5-min Rain = 0
KNH1 121633Z 23005KT 27/12 A301 RMK A01 T02720119  RH  039%=      5-min Rain = 0
KNH1 121634Z 29003KT 27/12 A301 RMK A01 T02710120  RH  039%=      5-min Rain = 0
KNH1 121635Z 27002KT 27/12 A301 RMK A01 T02710119  RH  039%=      5-min Rain = 0
KNH1 121636Z 23003KT 27/12 A301 RMK A01 T02710119  RH  039%=      5-min Rain = 0
KNH1 121637Z 22004KT 27/12 A301 RMK A01 T02690117  RH  039%=      5-min Rain = 0
KNH1 121638Z 22003KT 27/12 A301 RMK A01 T02680116  RH  039%=      5-min Rain = 0
KNH1 121639Z 26004KT 27/12 A301 RMK A01 T02660117  RH  039%=      5-min Rain = 0
KNH1 121640Z 23003KT 27/12 A301 RMK A01 T02650118  RH  040%=      5-min Rain = 0
KNH1 121641Z 22001KT 27/12 A301 RMK A01 T02650118  RH  040%=      5-min Rain = 0
KNH1 121642Z 21001KT 27/12 A301 RMK A01 T02670120  RH  040%=      5-min Rain = 0
KNH1 121643Z 26001KT 27/12 A301 RMK A01 T02710121  RH  039%=      5-min Rain = 0
KNH1 121644Z 29002KT 27/12 A301 RMK A01 T02730120  RH  039%=      5-min Rain = 0
KNH1 121645Z 30004KT 28/12 A301 RMK A01 T02750117  RH  037%=      5-min Rain = 0
KNH1 121646Z 32003KT 28/12 A3009 RMK A01 T02760116  RH  037%=      5-min Rain = 0
KNH1 121647Z 34004KT 28/12 A3009 RMK A01 T02770116  RH  037%=      5-min Rain = 0
KNH1 121648Z 31004KT 28/12 A3009 RMK A01 T02800117  RH  037%=      5-min Rain = 0
KNH1 121649Z 33002KT 28/12 A3009 RMK A01 T02780119  RH  037%=      5-min Rain = 0
KNH1 121650Z 35001KT 28/12 A3009 RMK A01 T02780119  RH  037%=      5-min Rain = 0
KNH1 121651Z 32002KT 28/12 A3009 RMK A01 T02800120  RH  037%=      5-min Rain = 0
KNH1 121652Z 26003KT 28/12 A3009 RMK A01 T02800120  RH  037%=      5-min Rain = 0
KNH1 121653Z 23005KT 28/12 A3009 RMK A01 T02800121  RH  037%=      5-min Rain = 0
KNH1 121654Z 28005KT 28/12 A3009 RMK A01 T02800122  RH  038%=      5-min Rain = 0
KNH1 121655Z 29005KT 28/12 A3009 RMK A01 T02790119  RH  037%=      5-min Rain = 0
KNH1 121656Z 29004KT 28/12 A3009 RMK A01 T02760118  RH  037%=      5-min Rain = 0
KNH1 121657Z 33002KT 28/12 A3009 RMK A01 T02750116  RH  037%=      5-min Rain = 0
KNH1 121658Z 34002KT 27/12 A3009 RMK A01 T02740116  RH  037%=      5-min Rain = 0
KNH1 121659Z 34003KT 28/12 A3009 RMK A01 T02760116  RH  037%=      5-min Rain = 0
KNH1 121700Z 35002KT 28/12 A3009 RMK A01 T02780115  RH  036%=      5-min Rain = 0
KNH1 121701Z 27003KT 28/12 A3009 RMK A01 T02780115  RH  036%=      5-min Rain = 0
KNH1 121702Z 28005KT 28/12 A3009 RMK A01 T02790116  RH  036%=      5-min Rain = 0
KNH1 121703Z 28005KT 28/11 A3009 RMK A01 T02800114  RH  036%=      5-min Rain = 0
KNH1 121704Z 29005KT 28/11 A3009 RMK A01 T02800112  RH  035%=      5-min Rain = 0
KNH1 121705Z 30004KT 28/12 A3009 RMK A01 T02800115  RH  036%=      5-min Rain = 0
KNH1 121706Z 30004KT 28/12 A3009 RMK A01 T02800116  RH  036%=      5-min Rain = 0
KNH1 121707Z 29005KT 28/12 A3009 RMK A01 T02800115  RH  036%=      5-min Rain = 0
KNH1 121708Z 30004KT 28/11 A3009 RMK A01 T02790114  RH  036%=      5-min Rain = 0
KNH1 121709Z 27004KT 28/11 A3009 RMK A01 T02770114  RH  036%=      5-min Rain = 0
KNH1 121710Z 28003KT 28/11 A3009 RMK A01 T02770113  RH  036%=      5-min Rain = 0
KNH1 121711Z 32006KT 28/12 A3009 RMK A01 T02780116  RH  036%=      5-min Rain = 0
KNH1 121712Z 32004KT 28/12 A3009 RMK A01 T02800117  RH  036%=      5-min Rain = 0
KNH1 121713Z 32002KT 28/12 A3009 RMK A01 T02810118  RH  036%=      5-min Rain = 0
KNH1 121714Z 29003KT 28/12 A3009 RMK A01 T02830118  RH  036%=      5-min Rain = 0
KNH1 121715Z 21002KT 28/12 A3009 RMK A01 T02830118  RH  036%=      5-min Rain = 0
KNH1 121716Z 28004KT 29/12 A3008 RMK A01 T02850118  RH  036%=      5-min Rain = 0
KNH1 121717Z 24003KT 29/12 A3008 RMK A01 T02870118  RH  035%=      5-min Rain = 0
KNH1 121718Z 28003KT 29/12 A3008 RMK A01 T02870119  RH  035%=      5-min Rain = 0
KNH1 121719Z 29007KT 29/12 A3008 RMK A01 T02870119  RH  035%=      5-min Rain = 0
KNH1 121720Z 29007KT 29/12 A3008 RMK A01 T02880116  RH  034%=      5-min Rain = 0
KNH1 121721Z 30004KT 29/12 A3008 RMK A01 T02890115  RH  034%=      5-min Rain = 0
KNH1 121722Z 30006KT 29/12 A3008 RMK A01 T02920115  RH  033%=      5-min Rain = 0
KNH1 121723Z 31004KT 29/12 A3008 RMK A01 T02910115  RH  034%=      5-min Rain = 0
KNH1 121724Z 33004KT 29/11 A3008 RMK A01 T02890114  RH  034%=      5-min Rain = 0
KNH1 121725Z 29003KT 29/12 A3008 RMK A01 T02860115  RH  034%=      5-min Rain = 0
KNH1 121726Z 26003KT 29/12 A3008 RMK A01 T02860119  RH  035%=      5-min Rain = 0
KNH1 121727Z 25003KT 29/12 A3008 RMK A01 T02890118  RH  035%=      5-min Rain = 0
KNH1 121728Z 30003KT 29/12 A3008 RMK A01 T02890115  RH  034%=      5-min Rain = 0
KNH1 121729Z 27006KT 29/12 A3008 RMK A01 T02880117  RH  035%=      5-min Rain = 0
KNH1 121730Z 27004KT 29/12 A3008 RMK A01 T02870116  RH  035%=      5-min Rain = 0
KNH1 121731Z 25004KT 29/12 A3008 RMK A01 T02860118  RH  035%=      5-min Rain = 0
KNH1 121732Z 26005KT 29/12 A3008 RMK A01 T02860119  RH  036%=      5-min Rain = 0
KNH1 121733Z 27006KT 29/12 A3008 RMK A01 T02900116  RH  034%=      5-min Rain = 0
KNH1 121734Z 29006KT 29/11 A3008 RMK A01 T02920111  RH  033%=      5-min Rain = 0
KNH1 121735Z 27007KT 29/11 A3008 RMK A01 T02930112  RH  033%=      5-min Rain = 0
KNH1 121736Z 29007KT 29/11 A3008 RMK A01 T02930113  RH  033%=      5-min Rain = 0
KNH1 121737Z 29007KT 29/11 A3008 RMK A01 T02920113  RH  033%=      5-min Rain = 0
KNH1 121738Z 30007KT 29/11 A3008 RMK A01 T02930110  RH  032%=      5-min Rain = 0
KNH1 121739Z 31005KT 29/11 A3008 RMK A01 T02930109  RH  032%=      5-min Rain = 0
KNH1 121740Z 33004KT 29/11 A3007 RMK A01 T02930111  RH  033%=      5-min Rain = 0
KNH1 121741Z 31004KT 30/11 A3007 RMK A01 T02950113  RH  033%=      5-min Rain = 0
KNH1 121742Z 30006KT 30/12 A3007 RMK A01 T02950115  RH  033%=      5-min Rain = 0
KNH1 121743Z 29007KT 30/11 A3007 RMK A01 T02960113  RH  032%=      5-min Rain = 0
KNH1 121744Z 30005KT 30/11 A3007 RMK A01 T02970113  RH  032%=      5-min Rain = 0
KNH1 121745Z 32005KT 30/11 A3007 RMK A01 T02980112  RH  032%=      5-min Rain = 0
KNH1 121746Z 28007KT 30/11 A3007 RMK A01 T03010112  RH  031%=      5-min Rain = 0
KNH1 121747Z 27005KT 30/11 A3007 RMK A01 T03020112  RH  031%=      5-min Rain = 0
KNH1 121748Z 29004KT 30/11 A3007 RMK A01 T03030114  RH  031%=      5-min Rain = 0
KNH1 121749Z 34006KT 30/12 A3007 RMK A01 T03040115  RH  031%=      5-min Rain = 0
KNH1 121750Z 33005KT 30/12 A3007 RMK A01 T03040115  RH  031%=      5-min Rain = 0
KNH1 121751Z 29007KT 30/12 A3007 RMK A01 T03040115  RH  031%=      5-min Rain = 0
KNH1 121752Z 29006KT 30/12 A3007 RMK A01 T03030116  RH  032%=      5-min Rain = 0
KNH1 121753Z 29003KT 30/11 A3007 RMK A01 T03030112  RH  031%=      5-min Rain = 0
KNH1 121754Z 32005KT 30/11 A3007 RMK A01 T03020113  RH  031%=      5-min Rain = 0
KNH1 121755Z 32003KT 30/11 A3007 RMK A01 T03020114  RH  031%=      5-min Rain = 0
KNH1 121756Z 34005KT 30/12 A3007 RMK A01 T03020115  RH  031%=      5-min Rain = 0
KNH1 121757Z 31005KT 30/12 A3007 RMK A01 T03030115  RH  031%=      5-min Rain = 0
KNH1 121758Z 28007KT 31/12 A3007 RMK A01 T03050116  RH  031%=      5-min Rain = 0
KNH1 121759Z 26005KT 30/12 A3007 RMK A01 T03030115  RH  031%=      5-min Rain = 0
KNH1 121800Z 32004KT 30/11 A3006 RMK A01 T03010113  RH  031%=      5-min Rain = 0
KNH1 121801Z 29006KT 30/11 A3006 RMK A01 T03020110  RH  030%=      5-min Rain = 0
KNH1 121802Z 29008KT 30/11 A3006 RMK A01 T03030112  RH  031%=      5-min Rain = 0
KNH1 121803Z 29007KT 30/11 A3006 RMK A01 T03030111  RH  030%=      5-min Rain = 0
KNH1 121804Z 31007KT 30/11 A3006 RMK A01 T03030112  RH  031%=      5-min Rain = 0
KNH1 121805Z 31005KT 30/11 A3006 RMK A01 T03030109  RH  030%=      5-min Rain = 0
KNH1 121806Z 28005KT 30/11 A3006 RMK A01 T03040113  RH  031%=      5-min Rain = 0
KNH1 121807Z 31004KT 31/11 A3006 RMK A01 T03060113  RH  030%=      5-min Rain = 0
KNH1 121808Z 30005KT 31/11 A3006 RMK A01 T03070113  RH  030%=      5-min Rain = 0
KNH1 121809Z 28006KT 31/11 A3006 RMK A01 T03070110  RH  030%=      5-min Rain = 0
KNH1 121810Z 29003KT 31/11 A3006 RMK A01 T03050109  RH  030%=      5-min Rain = 0
KNH1 121811Z 30004KT 30/11 A3006 RMK A01 T03040112  RH  031%=      5-min Rain = 0
KNH1 121812Z 29004KT 31/11 A3006 RMK A01 T03050110  RH  030%=      5-min Rain = 0
KNH1 121813Z 31005KT 31/11 A3006 RMK A01 T03060109  RH  030%=      5-min Rain = 0
KNH1 121814Z 33003KT 31/11 A3006 RMK A01 T03060109  RH  030%=      5-min Rain = 0
KNH1 121815Z 29003KT 31/11 A3006 RMK A01 T03060111  RH  030%=      5-min Rain = 0
KNH1 121816Z 30007KT 31/11 A3006 RMK A01 T03080111  RH  030%=      5-min Rain = 0
KNH1 121817Z 32006KT 31/11 A3006 RMK A01 T03100108  RH  029%=      5-min Rain = 0
KNH1 121818Z 30005KT 31/11 A3006 RMK A01 T03090108  RH  029%=      5-min Rain = 0
KNH1 121819Z 29006KT 31/11 A3006 RMK A01 T03090107  RH  029%=      5-min Rain = 0
KNH1 121820Z 31005KT 31/11 A3006 RMK A01 T03080109  RH  029%=      5-min Rain = 0
KNH1 121821Z 31005KT 31/11 A3006 RMK A01 T03080112  RH  030%=      5-min Rain = 0
KNH1 121822Z 31005KT 31/11 A3006 RMK A01 T03110110  RH  029%=      5-min Rain = 0
KNH1 121823Z 33002KT 31/11 A3005 RMK A01 T03100108  RH  029%=      5-min Rain = 0
KNH1 121824Z 34003KT 31/11 A3005 RMK A01 T03090109  RH  029%=      5-min Rain = 0
KNH1 121825Z 32004KT 31/11 A3005 RMK A01 T03100107  RH  029%=      5-min Rain = 0
KNH1 121826Z 33005KT 31/11 A3005 RMK A01 T03110109  RH  029%=      5-min Rain = 0
KNH1 121827Z 33006KT 31/11 A3005 RMK A01 T03110107  RH  028%=      5-min Rain = 0
KNH1 121828Z 34007KT 31/10 A3005 RMK A01 T03120104  RH  028%=      5-min Rain = 0
KNH1 121829Z 34006KT 31/11 A3005 RMK A01 T03130107  RH  028%=      5-min Rain = 0
KNH1 121830Z 33004KT 32/11 A3005 RMK A01 T03150105  RH  027%=      5-min Rain = 0
KNH1 121831Z 30005KT 32/11 A3005 RMK A01 T03180107  RH  027%=      5-min Rain = 0
KNH1 121832Z 28006KT 32/11 A3005 RMK A01 T03170106  RH  027%=      5-min Rain = 0
KNH1 121833Z 24004KT 32/11 A3005 RMK A01 T03160107  RH  028%=      5-min Rain = 0
KNH1 121834Z 26005KT 32/11 A3005 RMK A01 T03160108  RH  028%=      5-min Rain = 0
KNH1 121835Z 28003KT 32/11 A3005 RMK A01 T03150106  RH  028%=      5-min Rain = 0
KNH1 121836Z 28003KT 31/11 A3005 RMK A01 T03140108  RH  028%=      5-min Rain = 0
KNH1 121837Z 29003KT 32/11 A3005 RMK A01 T03160107  RH  028%=      5-min Rain = 0
KNH1 121838Z 28004KT 32/11 A3005 RMK A01 T03180111  RH  028%=      5-min Rain = 0
KNH1 121839Z 30006KT 32/11 A3005 RMK A01 T03230108  RH  027%=      5-min Rain = 0
KNH1 121840Z 31007KT 32/11 A3005 RMK A01 T03220106  RH  027%=      5-min Rain = 0
KNH1 121841Z 33006KT 32/10 A3005 RMK A01 T03220104  RH  026%=      5-min Rain = 0
KNH1 121842Z 32004KT 32/10 A3005 RMK A01 T03220104  RH  026%=      5-min Rain = 0
KNH1 121843Z 34004G9KT 32/10 A3005 RMK A01 T03220102  RH  026%=      5-min Rain = 0
KNH1 121844Z 33006KT 32/10 A3004 RMK A01 T03220102  RH  026%=      5-min Rain = 0
KNH1 121845Z 33006KT 32/10 A3004 RMK A01 T03230101  RH  026%=      5-min Rain = 0
KNH1 121846Z 34006KT 32/10 A3004 RMK A01 T03220102  RH  026%=      5-min Rain = 0
KNH1 121847Z 34005KT 32/10 A3004 RMK A01 T03220101  RH  026%=      5-min Rain = 0
KNH1 121848Z 32004KT 32/10 A3004 RMK A01 T03230102  RH  026%=      5-min Rain = 0
KNH1 121849Z 28005KT 32/10 A3004 RMK A01 T03240103  RH  026%=      5-min Rain = 0
KNH1 121850Z 28006KT 32/10 A3004 RMK A01 T03230102  RH  026%=      5-min Rain = 0
KNH1 121851Z 27005KT 32/10 A3004 RMK A01 T03220102  RH  026%=      5-min Rain = 0
KNH1 121852Z 27005KT 32/10 A3004 RMK A01 T03210102  RH  026%=      5-min Rain = 0
KNH1 121853Z 27004KT 32/10 A3004 RMK A01 T03210100  RH  026%=      5-min Rain = 0
KNH1 121854Z 26005KT 32/10 A3004 RMK A01 T03210098  RH  025%=      5-min Rain = 0
KNH1 121855Z 30007KT 32/10 A3004 RMK A01 T03200100  RH  026%=      5-min Rain = 0
KNH1 121856Z 28007KT 32/10 A3004 RMK A01 T03200101  RH  026%=      5-min Rain = 0
KNH1 121857Z 27008KT 32/10 A3004 RMK A01 T03220100  RH  026%=      5-min Rain = 0
KNH1 121858Z 29008KT 32/10 A3004 RMK A01 T03220100  RH  026%=      5-min Rain = 0
KNH1 121859Z 29007KT 32/10 A3004 RMK A01 T03210097  RH  025%=      5-min Rain = 0
KNH1 121900Z 31005KT 32/10 A3004 RMK A01 T03190100  RH  026%=      5-min Rain = 0
KNH1 121901Z 30004KT 32/10 A3004 RMK A01 T03200099  RH  026%=      5-min Rain = 0
KNH1 121902Z 30005KT 32/10 A3004 RMK A01 T03210102  RH  026%=      5-min Rain = 0
KNH1 121903Z 32007KT 32/10 A3004 RMK A01 T03240097  RH  025%=      5-min Rain = 0
KNH1 121904Z 33006KT 32/09 A3003 RMK A01 T03230094  RH  024%=      5-min Rain = 0
KNH1 121905Z 34007KT 32/09 A3003 RMK A01 T03220094  RH  025%=      5-min Rain = 0
KNH1 121906Z 34008KT 32/09 A3003 RMK A01 T03230091  RH  024%=      5-min Rain = 0
KNH1 121907Z 34005KT 32/09 A3003 RMK A01 T03240091  RH  024%=      5-min Rain = 0
KNH1 121908Z 33004KT 33/09 A3003 RMK A01 T03250092  RH  024%=      5-min Rain = 0
KNH1 121909Z 35004KT 33/09 A3003 RMK A01 T03250094  RH  024%=      5-min Rain = 0
KNH1 121910Z 35003KT 32/09 A3003 RMK A01 T03240091  RH  024%=      5-min Rain = 0
KNH1 121911Z 29002KT 32/09 A3003 RMK A01 T03210091  RH  024%=      5-min Rain = 0
KNH1 121912Z 30001KT 32/09 A3003 RMK A01 T03190093  RH  025%=      5-min Rain = 0
KNH1 121913Z 30003KT 32/10 A3003 RMK A01 T03200095  RH  025%=      5-min Rain = 0
KNH1 121914Z 29004KT 32/10 A3003 RMK A01 T03220095  RH  025%=      5-min Rain = 0
KNH1 121915Z 30002KT 32/10 A3003 RMK A01 T03220095  RH  025%=      5-min Rain = 0
KNH1 121916Z 31006KT 32/10 A3003 RMK A01 T03220097  RH  025%=      5-min Rain = 0
KNH1 121917Z 30010KT 32/10 A3003 RMK A01 T03230097  RH  025%=      5-min Rain = 0
KNH1 121918Z 29008KT 32/10 A3003 RMK A01 T03240097  RH  025%=      5-min Rain = 0
KNH1 121919Z 28008KT 32/10 A3003 RMK A01 T03240097  RH  025%=      5-min Rain = 0
KNH1 121920Z 28005KT 32/09 A3002 RMK A01 T03230094  RH  024%=      5-min Rain = 0
KNH1 121921Z 30005KT 32/09 A3003 RMK A01 T03210094  RH  025%=      5-min Rain = 0
KNH1 121922Z 31006KT 32/10 A3002 RMK A01 T03210095  RH  025%=      5-min Rain = 0
KNH1 121923Z 33007KT 32/10 A3002 RMK A01 T03230095  RH  024%=      5-min Rain = 0
KNH1 121924Z 34006KT 33/09 A3002 RMK A01 T03260093  RH  024%=      5-min Rain = 0
KNH1 121925Z 35005KT 33/09 A3002 RMK A01 T03270093  RH  024%=      5-min Rain = 0
KNH1 121926Z 32005KT 33/09 A3002 RMK A01 T03280091  RH  023%=      5-min Rain = 0
KNH1 121927Z 28005KT 33/09 A3002 RMK A01 T03260092  RH  024%=      5-min Rain = 0
KNH1 121928Z 30004KT 33/09 A3002 RMK A01 T03250092  RH  024%=      5-min Rain = 0
KNH1 121929Z 27002KT 33/09 A3002 RMK A01 T03250093  RH  024%=      5-min Rain = 0
KNH1 121930Z 28003KT 33/09 A3002 RMK A01 T03250092  RH  024%=      5-min Rain = 0
KNH1 121931Z 32006KT 33/09 A3002 RMK A01 T03250092  RH  024%=      5-min Rain = 0
KNH1 121932Z 29006KT 33/10 A3002 RMK A01 T03250095  RH  024%=      5-min Rain = 0
KNH1 121933Z 29008KT 33/10 A3002 RMK A01 T03280095  RH  024%=      5-min Rain = 0
KNH1 121934Z 29006KT 33/09 A3002 RMK A01 T03270092  RH  024%=      5-min Rain = 0
KNH1 121935Z 31004KT 33/09 A3002 RMK A01 T03250094  RH  024%=      5-min Rain = 0
KNH1 121936Z 31003KT 33/10 A3002 RMK A01 T03250095  RH  024%=      5-min Rain = 0
KNH1 121937Z 29005KT 33/10 A3002 RMK A01 T03260098  RH  025%=      5-min Rain = 0
KNH1 121938Z 29007KT 33/10 A3002 RMK A01 T03290100  RH  025%=      5-min Rain = 0
KNH1 121939Z 30005KT 33/10 A3002 RMK A01 T03310095  RH  024%=      5-min Rain = 0
KNH1 121940Z 32005KT 33/10 A3002 RMK A01 T03280097  RH  024%=      5-min Rain = 0
KNH1 121941Z 34007KT 33/10 A3002 RMK A01 T03300096  RH  024%=      5-min Rain = 0
KNH1 121942Z 36006KT 33/10 A3001 RMK A01 T03310096  RH  023%=      5-min Rain = 0
KNH1 121943Z 02006KT 33/09 A3001 RMK A01 T03320094  RH  023%=      5-min Rain = 0
KNH1 121944Z 00006KT 33/10 A3001 RMK A01 T03310097  RH  024%=      5-min Rain = 0
KNH1 121945Z 36006KT 33/10 A3001 RMK A01 T03340096  RH  023%=      5-min Rain = 0
KNH1 121946Z 36004KT 33/10 A3001 RMK A01 T03340096  RH  023%=      5-min Rain = 0
KNH1 121947Z 01003KT 33/10 A3001 RMK A01 T03330095  RH  023%=      5-min Rain = 0
KNH1 121948Z 33003KT 33/10 A3001 RMK A01 T03330096  RH  023%=      5-min Rain = 0
KNH1 121949Z 28004KT 33/10 A3001 RMK A01 T03330097  RH  023%=      5-min Rain = 0
KNH1 121950Z 27005KT 33/10 A3001 RMK A01 T03330097  RH  023%=      5-min Rain = 0
KNH1 121951Z 32004KT 33/10 A3001 RMK A01 T03320098  RH  024%=      5-min Rain = 0
KNH1 121952Z 35004KT 33/10 A3001 RMK A01 T03330097  RH  023%=      5-min Rain = 0
KNH1 121953Z 35006KT 33/10 A3001 RMK A01 T03340099  RH  024%=      5-min Rain = 0
KNH1 121954Z 34008KT 34/09 A3001 RMK A01 T03360094  RH  023%=      5-min Rain = 0
KNH1 121955Z 35007KT 34/09 A3001 RMK A01 T03350093  RH  023%=      5-min Rain = 0
KNH1 121956Z 34007KT 34/09 A3001 RMK A01 T03360094  RH  023%=      5-min Rain = 0
KNH1 121957Z 33007KT 34/09 A3001 RMK A01 T03380093  RH  022%=      5-min Rain = 0
KNH1 121958Z 34006KT 33/09 A3001 RMK A01 T03340092  RH  023%=      5-min Rain = 0
KNH1 121959Z 34005KT 33/09 A3001 RMK A01 T03320094  RH  023%=      5-min Rain = 0
KNH1 122000Z 35004KT 33/09 A30 RMK A01 T03330093  RH  023%=      5-min Rain = 0
KNH1 122001Z 06002KT 33/09 A30 RMK A01 T03330091  RH  022%=      5-min Rain = 0
KNH1 122002Z 09002KT 33/09 A30 RMK A01 T03300090  RH  023%=      5-min Rain = 0
KNH1 122003Z 31002G7KT 33/09 A30 RMK A01 T03270091  RH  023%=      5-min Rain = 0
KNH1 122004Z 34006KT 33/10 A30 RMK A01 T03300096  RH  024%=      5-min Rain = 0
KNH1 122005Z 35006KT 33/10 A30 RMK A01 T03340095  RH  023%=      5-min Rain = 0
KNH1 122006Z 00004KT 34/09 A30 RMK A01 T03350094  RH  023%=      5-min Rain = 0
KNH1 122007Z 01003KT 34/10 A30 RMK A01 T03350095  RH  023%=      5-min Rain = 0
KNH1 122008Z 30005KT 34/10 A30 RMK A01 T03350095  RH  023%=      5-min Rain = 0
KNH1 122009Z 30006KT 33/09 A30 RMK A01 T03330092  RH  023%=      5-min Rain = 0
KNH1 122010Z 30006KT 33/09 A30 RMK A01 T03300094  RH  023%=      5-min Rain = 0
KNH1 122011Z 31004KT 33/09 A30 RMK A01 T03310094  RH  023%=      5-min Rain = 0
KNH1 122012Z 28003KT 33/09 A30 RMK A01 T03330094  RH  023%=      5-min Rain = 0
KNH1 122013Z 19002KT 33/09 A30 RMK A01 T03330091  RH  023%=      5-min Rain = 0
KNH1 122014Z 32005KT 33/09 A30 RMK A01 T03320093  RH  023%=      5-min Rain = 0
KNH1 122015Z 31007KT 33/09 A2999 RMK A01 T03320092  RH  023%=      5-min Rain = 0
KNH1 122016Z 30004KT 33/09 A2999 RMK A01 T03320092  RH  023%=      5-min Rain = 0
KNH1 122017Z 30005KT 33/09 A2999 RMK A01 T03320093  RH  023%=      5-min Rain = 0
KNH1 122018Z 28006KT 33/10 A2999 RMK A01 T03340095  RH  023%=      5-min Rain = 0
KNH1 122019Z 29009KT 33/10 A2999 RMK A01 T03340097  RH  023%=      5-min Rain = 0
KNH1 122020Z 34008KT 33/10 A2999 RMK A01 T03340098  RH  024%=      5-min Rain = 0
KNH1 122021Z 35006KT 34/10 A2999 RMK A01 T03350097  RH  023%=      5-min Rain = 0
KNH1 122022Z 32007KT 34/10 A2999 RMK A01 T03360095  RH  023%=      5-min Rain = 0
KNH1 122023Z 32006KT 33/09 A2999 RMK A01 T03340093  RH  023%=      5-min Rain = 0
KNH1 122024Z 31005KT 33/09 A2999 RMK A01 T03320094  RH  023%=      5-min Rain = 0
KNH1 122025Z 31006KT 33/09 A2999 RMK A01 T03320094  RH  023%=      5-min Rain = 0
KNH1 122026Z 31007KT 33/09 A2999 RMK A01 T03340092  RH  023%=      5-min Rain = 0
KNH1 122027Z 35003KT 33/09 A2999 RMK A01 T03340091  RH  022%=      5-min Rain = 0
KNH1 122028Z 32002KT 33/09 A2999 RMK A01 T03340091  RH  022%=      5-min Rain = 0
KNH1 122029Z 32007KT 34/09 A2999 RMK A01 T03350094  RH  023%=      5-min Rain = 0
KNH1 122030Z 32008KT 34/10 A2999 RMK A01 T03380099  RH  023%=      5-min Rain = 0
KNH1 122031Z 32008KT 34/09 A2999 RMK A01 T03410094  RH  022%=      5-min Rain = 0
KNH1 122032Z 29007KT 34/09 A2999 RMK A01 T03380092  RH  022%=      5-min Rain = 0
KNH1 122033Z 25004KT 33/09 A2999 RMK A01 T03340094  RH  023%=      5-min Rain = 0
KNH1 122034Z 24002KT 33/09 A2998 RMK A01 T03330091  RH  023%=      5-min Rain = 0
KNH1 122035Z 21004G9KT 33/09 A2998 RMK A01 T03330093  RH  023%=      5-min Rain = 0
KNH1 122036Z 35008KT 33/09 A2998 RMK A01 T03330093  RH  023%=      5-min Rain = 0
KNH1 122037Z 00006KT 34/09 A2998 RMK A01 T03350094  RH  023%=      5-min Rain = 0
KNH1 122038Z 00004KT 34/09 A2998 RMK A01 T03360093  RH  022%=      5-min Rain = 0
KNH1 122039Z 35004KT 34/10 A2998 RMK A01 T03360095  RH  023%=      5-min Rain = 0
KNH1 122040Z 33007KT 34/10 A2998 RMK A01 T03390095  RH  022%=      5-min Rain = 0
KNH1 122041Z 32005KT 34/09 A2998 RMK A01 T03410093  RH  022%=      5-min Rain = 0
KNH1 122042Z 33004KT 34/09 A2998 RMK A01 T03400094  RH  022%=      5-min Rain = 0
KNH1 122043Z 36005KT 34/10 A2998 RMK A01 T03400096  RH  023%=      5-min Rain = 0
KNH1 122044Z 00006KT 34/10 A2998 RMK A01 T03410095  RH  022%=      5-min Rain = 0
KNH1 122045Z 33005KT 34/10 A2998 RMK A01 T03410095  RH  022%=      5-min Rain = 0
KNH1 122046Z 30003KT 34/09 A2998 RMK A01 T03420092  RH  022%=      5-min Rain = 0
KNH1 122047Z 32009KT 34/09 A2998 RMK A01 T03400093  RH  022%=      5-min Rain = 0
KNH1 122048Z 30007KT 34/09 A2998 RMK A01 T03370091  RH  022%=      5-min Rain = 0
KNH1 122049Z 30004KT 34/09 A2998 RMK A01 T03360090  RH  022%=      5-min Rain = 0
KNH1 122050Z 30003KT 34/09 A2998 RMK A01 T03370094  RH  023%=      5-min Rain = 0
KNH1 122051Z 28006KT 34/10 A2998 RMK A01 T03410095  RH  022%=      5-min Rain = 0
KNH1 122052Z 31004KT 34/09 A2998 RMK A01 T03420092  RH  022%=      5-min Rain = 0
KNH1 122053Z 06003KT 34/09 A2997 RMK A01 T03430090  RH  021%=      5-min Rain = 0
KNH1 122054Z 10002KT 34/09 A2997 RMK A01 T03400089  RH  021%=      5-min Rain = 0
KNH1 122055Z 32002KT 34/09 A2997 RMK A01 T03380089  RH  022%=      5-min Rain = 0
KNH1 122056Z 31004KT 34/09 A2997 RMK A01 T03380088  RH  021%=      5-min Rain = 0
KNH1 122057Z 31005KT 34/09 A2997 RMK A01 T03370090  RH  022%=      5-min Rain = 0
KNH1 122058Z 34008KT 34/09 A2997 RMK A01 T03380092  RH  022%=      5-min Rain = 0
KNH1 122059Z 34006KT 34/09 A2997 RMK A01 T03410090  RH  021%=      5-min Rain = 0
KNH1 122100Z 33006KT 34/09 A2997 RMK A01 T03410088  RH  021%=      5-min Rain = 0
KNH1 122101Z 34003KT 34/09 A2997 RMK A01 T03390087  RH  021%=      5-min Rain = 0
KNH1 122102Z 34006KT 34/09 A2997 RMK A01 T03370089  RH  022%=      5-min Rain = 0
KNH1 122103Z 34004KT 34/09 A2997 RMK A01 T03380088  RH  022%=      5-min Rain = 0
KNH1 122104Z 29009KT 34/09 A2997 RMK A01 T03390090  RH  022%=      5-min Rain = 0
KNH1 122105Z 28008KT 34/09 A2997 RMK A01 T03410094  RH  022%=      5-min Rain = 0
KNH1 122106Z 28008KT 34/09 A2997 RMK A01 T03410093  RH  022%=      5-min Rain = 0
KNH1 122107Z 31007KT 34/09 A2997 RMK A01 T03400092  RH  022%=      5-min Rain = 0
KNH1 122108Z 31005KT 34/09 A2997 RMK A01 T03420094  RH  022%=      5-min Rain = 0
KNH1 122109Z 29008KT 34/10 A2997 RMK A01 T03440097  RH  022%=      5-min Rain = 0
KNH1 122110Z 30006KT 35/10 A2997 RMK A01 T03450095  RH  022%=      5-min Rain = 0
KNH1 122111Z 31006KT 34/10 A2997 RMK A01 T03440097  RH  022%=      5-min Rain = 0
KNH1 122112Z 31006KT 34/09 A2997 RMK A01 T03440094  RH  022%=      5-min Rain = 0
KNH1 122113Z 31005KT 34/09 A2997 RMK A01 T03400092  RH  022%=      5-min Rain = 0
KNH1 122114Z 34006KT 34/09 A2997 RMK A01 T03390088  RH  022%=      5-min Rain = 0
KNH1 122115Z 35007KT 34/08 A2996 RMK A01 T03380084  RH  021%=      5-min Rain = 0
KNH1 122116Z 34004KT 34/09 A2996 RMK A01 T03380085  RH  021%=      5-min Rain = 0
KNH1 122117Z 32006KT 34/09 A2996 RMK A01 T03400087  RH  021%=      5-min Rain = 0
KNH1 122118Z 31006KT 34/08 A2996 RMK A01 T03410084  RH  021%=      5-min Rain = 0
KNH1 122119Z 33006KT 34/08 A2996 RMK A01 T03400084  RH  021%=      5-min Rain = 0
KNH1 122120Z 32005KT 34/08 A2996 RMK A01 T03390081  RH  020%=      5-min Rain = 0
KNH1 122121Z 32005KT 34/08 A2996 RMK A01 T03370082  RH  021%=      5-min Rain = 0
KNH1 122122Z 32003KT 34/08 A2996 RMK A01 T03370083  RH  021%=      5-min Rain = 0
KNH1 122123Z 34002KT 34/08 A2996 RMK A01 T03370082  RH  021%=      5-min Rain = 0
KNH1 122124Z 36005KT 34/08 A2996 RMK A01 T03370084  RH  021%=      5-min Rain = 0
KNH1 122125Z 30005KT 34/09 A2996 RMK A01 T03390086  RH  021%=      5-min Rain = 0
KNH1 122126Z 30007KT 34/09 A2996 RMK A01 T03400087  RH  021%=      5-min Rain = 0
KNH1 122127Z 32005KT 34/09 A2996 RMK A01 T03400087  RH  021%=      5-min Rain = 0
KNH1 122128Z 29004KT 34/09 A2996 RMK A01 T03420087  RH  021%=      5-min Rain = 0
KNH1 122129Z 27004KT 34/09 A2996 RMK A01 T03430087  RH  021%=      5-min Rain = 0
KNH1 122130Z 26004KT 34/09 A2996 RMK A01 T03420087  RH  021%=      5-min Rain = 0
KNH1 122131Z 26007KT 34/09 A2996 RMK A01 T03410089  RH  021%=      5-min Rain = 0
KNH1 122132Z 26004KT 34/09 A2996 RMK A01 T03390087  RH  021%=      5-min Rain = 0
KNH1 122133Z 27004KT 34/09 A2996 RMK A01 T03370088  RH  022%=      5-min Rain = 0
KNH1 122134Z 32005KT 34/09 A2996 RMK A01 T03380089  RH  022%=      5-min Rain = 0
KNH1 122135Z 31005KT 34/09 A2996 RMK A01 T03400089  RH  021%=      5-min Rain = 0
KNH1 122136Z 30004KT 34/09 A2996 RMK A01 T03410087  RH  021%=      5-min Rain = 0
KNH1 122137Z 30007KT 34/09 A2996 RMK A01 T03410085  RH  021%=      5-min Rain = 0
KNH1 122138Z 31008KT 34/09 A2996 RMK A01 T03430089  RH  021%=      5-min Rain = 0
KNH1 122139Z 30007KT 34/09 A2996 RMK A01 T03440086  RH  021%=      5-min Rain = 0
KNH1 122140Z 30007KT 34/09 A2995 RMK A01 T03420086  RH  021%=      5-min Rain = 0
KNH1 122141Z 32004KT 34/09 A2995 RMK A01 T03400085  RH  021%=      5-min Rain = 0
KNH1 122142Z 33003KT 34/09 A2995 RMK A01 T03390085  RH  021%=      5-min Rain = 0
KNH1 122143Z 31003KT 34/08 A2995 RMK A01 T03380084  RH  021%=      5-min Rain = 0
KNH1 122144Z 34006G11KT 34/09 A2995 RMK A01 T03380086  RH  021%=      5-min Rain = 0
KNH1 122145Z 34009KT 34/09 A2995 RMK A01 T03400085  RH  021%=      5-min Rain = 0
KNH1 122146Z 36008KT 34/08 A2995 RMK A01 T03410084  RH  021%=      5-min Rain = 0
KNH1 122147Z 35007KT 34/09 A2995 RMK A01 T03390085  RH  021%=      5-min Rain = 0
KNH1 122148Z 35005KT 34/09 A2995 RMK A01 T03390085  RH  021%=      5-min Rain = 0
KNH1 122149Z 34004KT 34/09 A2995 RMK A01 T03410085  RH  021%=      5-min Rain = 0
KNH1 122150Z 35005KT 34/09 A2995 RMK A01 T03420086  RH  021%=      5-min Rain = 0
KNH1 122151Z 35004KT 34/09 A2995 RMK A01 T03430087  RH  021%=      5-min Rain = 0
KNH1 122152Z 33004KT 34/09 A2995 RMK A01 T03440087  RH  021%=      5-min Rain = 0
KNH1 122153Z 33004KT 34/09 A2995 RMK A01 T03430085  RH  021%=      5-min Rain = 0
KNH1 122154Z 29005KT 34/09 A2995 RMK A01 T03400087  RH  021%=      5-min Rain = 0
KNH1 122155Z 33005KT 34/09 A2995 RMK A01 T03400092  RH  022%=      5-min Rain = 0
KNH1 122156Z 33005KT 34/09 A2995 RMK A01 T03430092  RH  022%=      5-min Rain = 0
KNH1 122157Z 33007KT 34/09 A2995 RMK A01 T03440090  RH  021%=      5-min Rain = 0
KNH1 122158Z 32005KT 34/09 A2995 RMK A01 T03420089  RH  021%=      5-min Rain = 0
KNH1 122159Z 34008KT 34/09 A2995 RMK A01 T03410089  RH  021%=      5-min Rain = 0
KNH1 122200Z 35006KT 34/09 A2995 RMK A01 T03410088  RH  021%=      5-min Rain = 0
KNH1 122201Z 35003KT 34/09 A2995 RMK A01 T03410089  RH  021%=      5-min Rain = 0
KNH1 122202Z 34002KT 34/09 A2995 RMK A01 T03410089  RH  021%=      5-min Rain = 0
KNH1 122203Z 32001KT 34/09 A2995 RMK A01 T03430087  RH  021%=      5-min Rain = 0
KNH1 122204Z 28000KT 34/09 A2995 RMK A01 T03420086  RH  021%=      5-min Rain = 0
KNH1 122205Z 02002KT 34/09 A2995 RMK A01 T03410087  RH  021%=      5-min Rain = 0
KNH1 122206Z 05003KT 34/09 A2995 RMK A01 T03410087  RH  021%=      5-min Rain = 0
KNH1 122207Z 05002KT 34/09 A2995 RMK A01 T03390089  RH  021%=      5-min Rain = 0
KNH1 122208Z 05001KT 34/09 A2995 RMK A01 T03380088  RH  022%=      5-min Rain = 0
KNH1 122209Z 00001KT 34/09 A2995 RMK A01 T03380087  RH  021%=      5-min Rain = 0
KNH1 122210Z 27000KT 34/09 A2995 RMK A01 T03380089  RH  022%=      5-min Rain = 0
KNH1 122211Z 32003KT 34/09 A2995 RMK A01 T03410092  RH  022%=      5-min Rain = 0
KNH1 122212Z 34006KT 34/09 A2995 RMK A01 T03440091  RH  021%=      5-min Rain = 0
KNH1 122213Z 34005KT 34/09 A2995 RMK A01 T03440088  RH  021%=      5-min Rain = 0
KNH1 122214Z 31004KT 34/09 A2995 RMK A01 T03430088  RH  021%=      5-min Rain = 0
KNH1 122215Z 33004KT 34/09 A2995 RMK A01 T03410089  RH  021%=      5-min Rain = 0
KNH1 122216Z 33004KT 34/09 A2995 RMK A01 T03430089  RH  021%=      5-min Rain = 0
KNH1 122217Z 34005KT 34/09 A2995 RMK A01 T03440091  RH  021%=      5-min Rain = 0
KNH1 122218Z 31005KT 35/09 A2995 RMK A01 T03450086  RH  020%=      5-min Rain = 0
KNH1 122219Z 31005KT 34/09 A2995 RMK A01 T03440089  RH  021%=      5-min Rain = 0
KNH1 122220Z 31005KT 34/09 A2995 RMK A01 T03430088  RH  021%=      5-min Rain = 0
KNH1 122221Z 32005KT 34/09 A2995 RMK A01 T03420087  RH  021%=      5-min Rain = 0
KNH1 122222Z 32005KT 34/09 A2995 RMK A01 T03420088  RH  021%=      5-min Rain = 0
KNH1 122223Z 31006KT 34/09 A2995 RMK A01 T03410087  RH  021%=      5-min Rain = 0
KNH1 122224Z 29005KT 34/09 A2995 RMK A01 T03390089  RH  021%=      5-min Rain = 0
KNH1 122225Z 29005KT 34/09 A2995 RMK A01 T03390088  RH  021%=      5-min Rain = 0
KNH1 122226Z 30007KT 34/09 A2994 RMK A01 T03390092  RH  022%=      5-min Rain = 0
KNH1 122227Z 33005KT 34/09 A2994 RMK A01 T03390092  RH  022%=      5-min Rain = 0
KNH1 122228Z 31004KT 34/09 A2994 RMK A01 T03410092  RH  022%=      5-min Rain = 0
KNH1 122229Z 31004KT 34/09 A2994 RMK A01 T03420091  RH  022%=      5-min Rain = 0
KNH1 122230Z 29007KT 34/09 A2994 RMK A01 T03430094  RH  022%=      5-min Rain = 0
KNH1 122231Z 27007KT 34/09 A2994 RMK A01 T03430091  RH  021%=      5-min Rain = 0
KNH1 122232Z 29006KT 34/09 A2994 RMK A01 T03420092  RH  022%=      5-min Rain = 0
KNH1 122233Z 30006KT 34/09 A2994 RMK A01 T03410090  RH  021%=      5-min Rain = 0
KNH1 122234Z 31004KT 34/09 A2994 RMK A01 T03400094  RH  022%=      5-min Rain = 0
KNH1 122235Z 29007KT 34/09 A2994 RMK A01 T03410090  RH  022%=      5-min Rain = 0
KNH1 122236Z 29004KT 34/09 A2994 RMK A01 T03400090  RH  022%=      5-min Rain = 0
KNH1 122237Z 27005KT 34/09 A2994 RMK A01 T03390094  RH  022%=      5-min Rain = 0
KNH1 122238Z 27006KT 34/09 A2994 RMK A01 T03400092  RH  022%=      5-min Rain = 0
KNH1 122239Z 25006KT 34/09 A2994 RMK A01 T03410091  RH  022%=      5-min Rain = 0
KNH1 122240Z 26007KT 34/09 A2994 RMK A01 T03400093  RH  022%=      5-min Rain = 0
KNH1 122241Z 27006KT 34/09 A2994 RMK A01 T03400091  RH  022%=      5-min Rain = 0
KNH1 122242Z 28005KT 34/09 A2994 RMK A01 T03390089  RH  022%=      5-min Rain = 0
KNH1 122243Z 26006KT 34/09 A2994 RMK A01 T03390090  RH  022%=      5-min Rain = 0
KNH1 122244Z 27005KT 34/09 A2994 RMK A01 T03380089  RH  022%=      5-min Rain = 0
KNH1 122245Z 27005KT 34/09 A2994 RMK A01 T03370089  RH  022%=      5-min Rain = 0
KNH1 122246Z 29006KT 34/09 A2994 RMK A01 T03370091  RH  022%=      5-min Rain = 0
KNH1 122247Z 29006KT 34/09 A2994 RMK A01 T03370090  RH  022%=      5-min Rain = 0
KNH1 122248Z 29005KT 34/09 A2994 RMK A01 T03370090  RH  022%=      5-min Rain = 0
KNH1 122249Z 31003KT 34/09 A2994 RMK A01 T03360089  RH  022%=      5-min Rain = 0
KNH1 122250Z 31002KT 34/09 A2994 RMK A01 T03360093  RH  022%=      5-min Rain = 0
KNH1 122251Z 32004KT 34/09 A2994 RMK A01 T03380092  RH  022%=      5-min Rain = 0
KNH1 122252Z 35005KT 34/09 A2994 RMK A01 T03400092  RH  022%=      5-min Rain = 0
KNH1 122253Z 35002KT 34/09 A2994 RMK A01 T03410092  RH  022%=      5-min Rain = 0
KNH1 122254Z 35003KT 34/09 A2994 RMK A01 T03410088  RH  021%=      5-min Rain = 0
KNH1 122255Z 01002KT 34/09 A2994 RMK A01 T03400086  RH  021%=      5-min Rain = 0
KNH1 122256Z 33003KT 34/09 A2994 RMK A01 T03390089  RH  022%=      5-min Rain = 0
KNH1 122257Z 34004KT 34/09 A2994 RMK A01 T03390090  RH  022%=      5-min Rain = 0
KNH1 122258Z 00002KT 34/09 A2994 RMK A01 T03400089  RH  021%=      5-min Rain = 0
KNH1 122259Z 01001KT 34/09 A2994 RMK A01 T03390088  RH  021%=      5-min Rain = 0
KNH1 122300Z 28002KT 34/09 A2994 RMK A01 T03390091  RH  022%=      5-min Rain = 0
KNH1 122301Z 24003KT 34/10 A2994 RMK A01 T03400096  RH  023%=      5-min Rain = 0
KNH1 122302Z 26004KT 34/09 A2994 RMK A01 T03410093  RH  022%=      5-min Rain = 0
KNH1 122303Z 27004KT 34/09 A2994 RMK A01 T03410092  RH  022%=      5-min Rain = 0
KNH1 122304Z 28003KT 34/09 A2994 RMK A01 T03390089  RH  022%=      5-min Rain = 0
KNH1 122305Z 27003KT 34/09 A2994 RMK A01 T03370088  RH  022%=      5-min Rain = 0
KNH1 122306Z 26003KT 34/09 A2994 RMK A01 T03360090  RH  022%=      5-min Rain = 0
KNH1 122307Z 26002KT 34/09 A2994 RMK A01 T03360093  RH  023%=      5-min Rain = 0
KNH1 122308Z 24001KT 34/09 A2994 RMK A01 T03370090  RH  022%=      5-min Rain = 0
KNH1 122309Z 31006KT 34/09 A2994 RMK A01 T03370092  RH  022%=      5-min Rain = 0
KNH1 122310Z 30006KT 34/09 A2994 RMK A01 T03380090  RH  022%=      5-min Rain = 0
KNH1 122311Z 30004KT 34/09 A2994 RMK A01 T03380088  RH  022%=      5-min Rain = 0
KNH1 122312Z 33002KT 34/09 A2994 RMK A01 T03370088  RH  022%=      5-min Rain = 0
KNH1 122313Z 29004KT 34/09 A2993 RMK A01 T03370089  RH  022%=      5-min Rain = 0
KNH1 122314Z 30006KT 34/09 A2993 RMK A01 T03370091  RH  022%=      5-min Rain = 0
KNH1 122315Z 31005KT 34/09 A2993 RMK A01 T03370093  RH  022%=      5-min Rain = 0
KNH1 122316Z 31004KT 34/09 A2993 RMK A01 T03370093  RH  022%=      5-min Rain = 0
KNH1 122317Z 32004KT 34/09 A2993 RMK A01 T03370093  RH  022%=      5-min Rain = 0
KNH1 122318Z 34004KT 34/09 A2993 RMK A01 T03380091  RH  022%=      5-min Rain = 0
KNH1 122319Z 32003KT 34/09 A2993 RMK A01 T03380087  RH  021%=      5-min Rain = 0
KNH1 122320Z 30003KT 34/09 A2993 RMK A01 T03370089  RH  022%=      5-min Rain = 0
KNH1 122321Z 29004KT 34/09 A2993 RMK A01 T03370091  RH  022%=      5-min Rain = 0
KNH1 122322Z 30004KT 34/09 A2993 RMK A01 T03370090  RH  022%=      5-min Rain = 0
KNH1 122323Z 31006KT 34/09 A2993 RMK A01 T03360090  RH  022%=      5-min Rain = 0
KNH1 122324Z 31006KT 34/09 A2993 RMK A01 T03350093  RH  023%=      5-min Rain = 0
KNH1 122325Z 30006KT 34/09 A2993 RMK A01 T03360094  RH  023%=      5-min Rain = 0
KNH1 122326Z 29007KT 34/09 A2993 RMK A01 T03350091  RH  022%=      5-min Rain = 0
KNH1 122327Z 28004KT 33/09 A2993 RMK A01 T03340088  RH  022%=      5-min Rain = 0
KNH1 122328Z 28004KT 33/09 A2993 RMK A01 T03340091  RH  022%=      5-min Rain = 0
KNH1 122329Z 30004KT 33/09 A2993 RMK A01 T03340088  RH  022%=      5-min Rain = 0
KNH1 122330Z 31005KT 33/09 A2993 RMK A01 T03340090  RH  022%=      5-min Rain = 0
KNH1 122331Z 33005KT 33/09 A2993 RMK A01 T03340091  RH  022%=      5-min Rain = 0
KNH1 122332Z 33006KT 34/09 A2993 RMK A01 T03350089  RH  022%=      5-min Rain = 0
KNH1 122333Z 33004KT 34/09 A2993 RMK A01 T03350088  RH  022%=      5-min Rain = 0
KNH1 122334Z 32003KT 34/09 A2993 RMK A01 T03350087  RH  022%=      5-min Rain = 0
KNH1 122335Z 33004KT 33/09 A2993 RMK A01 T03340088  RH  022%=      5-min Rain = 0
KNH1 122336Z 32003KT 33/09 A2993 RMK A01 T03340088  RH  022%=      5-min Rain = 0
KNH1 122337Z 31003KT 33/09 A2993 RMK A01 T03340091  RH  022%=      5-min Rain = 0
KNH1 122338Z 32004KT 33/09 A2993 RMK A01 T03340091  RH  023%=      5-min Rain = 0
KNH1 122339Z 32002KT 33/09 A2993 RMK A01 T03340091  RH  022%=      5-min Rain = 0
KNH1 122340Z 31003KT 33/09 A2993 RMK A01 T03340091  RH  022%=      5-min Rain = 0
KNH1 122341Z 30005KT 33/09 A2993 RMK A01 T03340092  RH  023%=      5-min Rain = 0
KNH1 122342Z 30005KT 33/09 A2993 RMK A01 T03330090  RH  022%=      5-min Rain = 0
KNH1 122343Z 29005KT 33/09 A2993 RMK A01 T03330092  RH  023%=      5-min Rain = 0
KNH1 122344Z 29005KT 33/09 A2993 RMK A01 T03320091  RH  023%=      5-min Rain = 0
KNH1 122345Z 30004KT 33/09 A2993 RMK A01 T03320092  RH  023%=      5-min Rain = 0
KNH1 122346Z 29005KT 33/10 A2993 RMK A01 T03320095  RH  023%=      5-min Rain = 0
KNH1 122347Z 30004KT 33/10 A2993 RMK A01 T03320098  RH  024%=      5-min Rain = 0
KNH1 122348Z 33003KT 33/10 A2993 RMK A01 T03320096  RH  024%=      5-min Rain = 0
KNH1 122349Z 33003KT 33/09 A2993 RMK A01 T03320092  RH  023%=      5-min Rain = 0
KNH1 122350Z 32003KT 33/09 A2993 RMK A01 T03320090  RH  023%=      5-min Rain = 0
KNH1 122351Z 32003KT 33/09 A2993 RMK A01 T03320093  RH  023%=      5-min Rain = 0
KNH1 122352Z 31003KT 33/10 A2993 RMK A01 T03310096  RH  024%=      5-min Rain = 0
KNH1 122353Z 31003KT 33/10 A2993 RMK A01 T03310097  RH  024%=      5-min Rain = 0
KNH1 122354Z 31004KT 33/10 A2993 RMK A01 T03310096  RH  024%=      5-min Rain = 0
KNH1 122355Z 31004KT 33/10 A2993 RMK A01 T03310095  RH  023%=      5-min Rain = 0
KNH1 122356Z 30004KT 33/09 A2993 RMK A01 T03300092  RH  023%=      5-min Rain = 0
KNH1 122357Z 29004KT 33/10 A2993 RMK A01 T03290096  RH  024%=      5-min Rain = 0
KNH1 122358Z 28004KT 33/10 A2993 RMK A01 T03290100  RH  025%=      5-min Rain = 0
KNH1 122359Z 28003KT 33/10 A2993 RMK A01 T03280100  RH  025%=      5-min Rain = 0
KNH1 130000Z 28004KT 33/10 A2993 RMK A01 T03280102  RH  025%=      5-min Rain = 0
KNH1 130001Z 28004KT 33/10 A2992 RMK A01 T03270102  RH  025%=      5-min Rain = 0
KNH1 130002Z 28004KT 33/10 A2992 RMK A01 T03270103  RH  025%=      5-min Rain = 0
KNH1 130003Z 28004KT 33/10 A2992 RMK A01 T03260101  RH  025%=      5-min Rain = 0
KNH1 130004Z 29004KT 33/10 A2992 RMK A01 T03250099  RH  025%=      5-min Rain = 0
KNH1 130005Z 29004KT 33/10 A2992 RMK A01 T03250098  RH  025%=      5-min Rain = 0
KNH1 130006Z 29004KT 33/10 A2992 RMK A01 T03250099  RH  025%=      5-min Rain = 0
KNH1 130007Z 28004KT 32/10 A2992 RMK A01 T03240104  RH  026%=      5-min Rain = 0
KNH1 130008Z 28005KT 32/10 A2992 RMK A01 T03230104  RH  026%=      5-min Rain = 0
KNH1 130009Z 28005KT 32/10 A2992 RMK A01 T03220104  RH  026%=      5-min Rain = 0
KNH1 130010Z 29004KT 32/11 A2992 RMK A01 T03220106  RH  027%=      5-min Rain = 0
KNH1 130011Z 29004KT 32/11 A2992 RMK A01 T03210105  RH  027%=      5-min Rain = 0
KNH1 130012Z 29004KT 32/11 A2992 RMK A01 T03200105  RH  027%=      5-min Rain = 0
KNH1 130013Z 29004KT 32/11 A2992 RMK A01 T03200107  RH  027%=      5-min Rain = 0
KNH1 130014Z 29004KT 32/11 A2992 RMK A01 T03190107  RH  027%=      5-min Rain = 0
KNH1 130015Z 29004KT 32/11 A2992 RMK A01 T03180109  RH  028%=      5-min Rain = 0
KNH1 130016Z 29004KT 32/11 A2992 RMK A01 T03180108  RH  028%=      5-min Rain = 0
KNH1 130017Z 29004KT 32/11 A2992 RMK A01 T03170108  RH  028%=      5-min Rain = 0
KNH1 130018Z 29003KT 32/11 A2992 RMK A01 T03160109  RH  028%=      5-min Rain = 0
KNH1 130019Z 29004KT 32/11 A2992 RMK A01 T03150111  RH  028%=      5-min Rain = 0
KNH1 130020Z 29004KT 31/11 A2992 RMK A01 T03140109  RH  028%=      5-min Rain = 0
KNH1 130021Z 29004KT 31/11 A2992 RMK A01 T03140109  RH  028%=      5-min Rain = 0
KNH1 130022Z 28003KT 31/11 A2992 RMK A01 T03130108  RH  028%=      5-min Rain = 0
KNH1 130023Z 28003KT 31/11 A2992 RMK A01 T03130110  RH  029%=      5-min Rain = 0
KNH1 130024Z 28003KT 31/11 A2992 RMK A01 T03120110  RH  029%=      5-min Rain = 0
KNH1 130025Z 28003KT 31/11 A2992 RMK A01 T03120111  RH  029%=      5-min Rain = 0
KNH1 130026Z 30003KT 31/11 A2992 RMK A01 T03110111  RH  029%=      5-min Rain = 0
KNH1 130027Z 29003KT 31/11 A2992 RMK A01 T03100111  RH  029%=      5-min Rain = 0
KNH1 130028Z 29003KT 31/11 A2992 RMK A01 T03090112  RH  030%=      5-min Rain = 0
KNH1 130029Z 30003KT 31/11 A2992 RMK A01 T03070111  RH  030%=      5-min Rain = 0
KNH1 130030Z 31003KT 31/11 A2992 RMK A01 T03060113  RH  030%=      5-min Rain = 0
KNH1 130031Z 32002KT 31/11 A2992 RMK A01 T03050110  RH  030%=      5-min Rain = 0
KNH1 130032Z 31002KT 30/11 A2992 RMK A01 T03040105  RH  029%=      5-min Rain = 0
KNH1 130033Z 31002KT 30/11 A2992 RMK A01 T03040105  RH  029%=      5-min Rain = 0
KNH1 130034Z 33001KT 30/10 A2992 RMK A01 T03040102  RH  029%=      5-min Rain = 0
KNH1 130035Z 34001KT 30/10 A2992 RMK A01 T03040101  RH  028%=      5-min Rain = 0
KNH1 130036Z 34001KT 30/10 A2992 RMK A01 T03040103  RH  029%=      5-min Rain = 0
KNH1 130037Z 01001KT 30/11 A2992 RMK A01 T03030105  RH  030%=      5-min Rain = 0
KNH1 130038Z 02002KT 30/11 A2992 RMK A01 T03000106  RH  030%=      5-min Rain = 0
KNH1 130039Z 03002KT 30/11 A2992 RMK A01 T02980107  RH  031%=      5-min Rain = 0
KNH1 130040Z 04001KT 30/11 A2992 RMK A01 T02970107  RH  031%=      5-min Rain = 0
KNH1 130041Z 05002KT 30/11 A2992 RMK A01 T02960108  RH  031%=      5-min Rain = 0
KNH1 130042Z 08002KT 30/11 A2992 RMK A01 T02960109  RH  031%=      5-min Rain = 0
KNH1 130043Z 07004KT 30/11 A2992 RMK A01 T02960112  RH  032%=      5-min Rain = 0
KNH1 130044Z 06004KT 29/12 A2992 RMK A01 T02930115  RH  033%=      5-min Rain = 0
KNH1 130045Z 06005KT 29/11 A2992 RMK A01 T02910114  RH  034%=      5-min Rain = 0
KNH1 130046Z 06004KT 29/11 A2992 RMK A01 T02890114  RH  034%=      5-min Rain = 0
KNH1 130047Z 06003KT 29/11 A2992 RMK A01 T02890114  RH  034%=      5-min Rain = 0
KNH1 130048Z 06003KT 29/12 A2992 RMK A01 T02900115  RH  034%=      5-min Rain = 0
KNH1 130049Z 06003KT 29/12 A2992 RMK A01 T02900117  RH  034%=      5-min Rain = 0
KNH1 130050Z 06003KT 29/12 A2992 RMK A01 T02900117  RH  034%=      5-min Rain = 0
KNH1 130051Z 07002KT 29/12 A2992 RMK A01 T02900117  RH  034%=      5-min Rain = 0
KNH1 130052Z 07001KT 29/12 A2992 RMK A01 T02900118  RH  034%=      5-min Rain = 0
KNH1 130053Z 04001KT 29/12 A2992 RMK A01 T02890117  RH  034%=      5-min Rain = 0
KNH1 130054Z 00002KT 29/12 A2992 RMK A01 T02890116  RH  034%=      5-min Rain = 0
KNH1 130055Z 35002KT 29/12 A2992 RMK A01 T02880115  RH  034%=      5-min Rain = 0
KNH1 130056Z 35003KT 29/12 A2992 RMK A01 T02880116  RH  034%=      5-min Rain = 0
KNH1 130057Z 00003KT 29/12 A2992 RMK A01 T02850115  RH  035%=      5-min Rain = 0
KNH1 130058Z 00003KT 28/11 A2992 RMK A01 T02840114  RH  035%=      5-min Rain = 0
KNH1 130059Z 01002KT 28/11 A2992 RMK A01 T02840113  RH  035%=      5-min Rain = 0
KNH1 130100Z 01002KT 28/11 A2993 RMK A01 T02830113  RH  035%=      5-min Rain = 0
KNH1 130101Z 36003KT 28/11 A2993 RMK A01 T02830114  RH  035%=      5-min Rain = 0
KNH1 130102Z 01003KT 28/11 A2993 RMK A01 T02830111  RH  034%=      5-min Rain = 0
KNH1 130103Z 00003KT 28/11 A2993 RMK A01 T02820109  RH  034%=      5-min Rain = 0
KNH1 130104Z 01003KT 28/11 A2993 RMK A01 T02810108  RH  034%=      5-min Rain = 0
KNH1 130105Z 00003KT 28/11 A2993 RMK A01 T02810106  RH  034%=      5-min Rain = 0
KNH1 130106Z 35002KT 28/11 A2993 RMK A01 T02810107  RH  034%=      5-min Rain = 0
KNH1 130107Z 34003KT 28/11 A2993 RMK A01 T02800114  RH  036%=      5-min Rain = 0
KNH1 130108Z 33003KT 28/11 A2993 RMK A01 T02780113  RH  036%=      5-min Rain = 0
KNH1 130109Z 32003KT 28/12 A2993 RMK A01 T02760116  RH  037%=      5-min Rain = 0
KNH1 130110Z 34003KT 27/11 A2993 RMK A01 T02730114  RH  037%=      5-min Rain = 0
KNH1 130111Z 33003KT 27/11 A2993 RMK A01 T02710110  RH  036%=      5-min Rain = 0
KNH1 130112Z 33004KT 27/11 A2993 RMK A01 T02720109  RH  036%=      5-min Rain = 0
KNH1 130113Z 34006KT 27/10 A2993 RMK A01 T02720104  RH  035%=      5-min Rain = 0
KNH1 130114Z 34005KT 27/10 A2993 RMK A01 T02740102  RH  034%=      5-min Rain = 0
KNH1 130115Z 35005KT 28/10 A2993 RMK A01 T02760101  RH  033%=      5-min Rain = 0
KNH1 130116Z 35005KT 28/10 A2993 RMK A01 T02770099  RH  033%=      5-min Rain = 0
KNH1 130117Z 35005KT 28/10 A2993 RMK A01 T02790098  RH  032%=      5-min Rain = 0
KNH1 130118Z 34004KT 28/10 A2993 RMK A01 T02800098  RH  032%=      5-min Rain = 0
KNH1 130119Z 34005KT 28/10 A2993 RMK A01 T02810097  RH  032%=      5-min Rain = 0
KNH1 130120Z 34005KT 28/10 A2993 RMK A01 T02810096  RH  031%=      5-min Rain = 0
KNH1 130121Z 00004KT 28/10 A2993 RMK A01 T02820097  RH  031%=      5-min Rain = 0
KNH1 130122Z 35005KT 28/10 A2993 RMK A01 T02820097  RH  031%=      5-min Rain = 0
KNH1 130123Z 34004KT 28/10 A2993 RMK A01 T02820097  RH  031%=      5-min Rain = 0
KNH1 130124Z 35005KT 28/10 A2993 RMK A01 T02830098  RH  031%=      5-min Rain = 0
KNH1 130125Z 35005KT 28/10 A2993 RMK A01 T02820098  RH  032%=      5-min Rain = 0
KNH1 130126Z 36005KT 28/10 A2993 RMK A01 T02820098  RH  032%=      5-min Rain = 0
KNH1 130127Z 00005KT 28/10 A2993 RMK A01 T02820098  RH  032%=      5-min Rain = 0
KNH1 130128Z 35005KT 28/10 A2993 RMK A01 T02810098  RH  032%=      5-min Rain = 0
KNH1 130129Z 35005KT 28/10 A2993 RMK A01 T02810098  RH  032%=      5-min Rain = 0
KNH1 130130Z 35004KT 28/10 A2993 RMK A01 T02800098  RH  032%=      5-min Rain = 0
KNH1 130131Z 35004KT 28/10 A2993 RMK A01 T02800097  RH  032%=      5-min Rain = 0
KNH1 130132Z 34005KT 28/10 A2993 RMK A01 T02800097  RH  032%=      5-min Rain = 0
KNH1 130133Z 35004KT 28/10 A2993 RMK A01 T02800096  RH  032%=      5-min Rain = 0
KNH1 130134Z 35004KT 28/10 A2993 RMK A01 T02800097  RH  032%=      5-min Rain = 0
KNH1 130135Z 36004KT 28/10 A2993 RMK A01 T02800097  RH  032%=      5-min Rain = 0
KNH1 130136Z 36004KT 28/10 A2993 RMK A01 T02800096  RH  032%=      5-min Rain = 0
KNH1 130137Z 35004KT 28/10 A2993 RMK A01 T02800097  RH  032%=      5-min Rain = 0
KNH1 130138Z 35004KT 28/10 A2993 RMK A01 T02800096  RH  032%=      5-min Rain = 0
KNH1 130139Z 35004KT 28/10 A2993 RMK A01 T02800096  RH  031%=      5-min Rain = 0
KNH1 130140Z 35004KT 28/10 A2993 RMK A01 T02810096  RH  032%=      5-min Rain = 0
KNH1 130141Z 36004KT 28/10 A2993 RMK A01 T02810096  RH  032%=      5-min Rain = 0
KNH1 130142Z 36003KT 28/10 A2993 RMK A01 T02810097  RH  032%=      5-min Rain = 0
KNH1 130143Z 36004KT 28/10 A2993 RMK A01 T02800097  RH  032%=      5-min Rain = 0
KNH1 130144Z 00004KT 28/10 A2993 RMK A01 T02790097  RH  032%=      5-min Rain = 0
KNH1 130145Z 00003KT 28/10 A2994 RMK A01 T02780097  RH  032%=      5-min Rain = 0
KNH1 130146Z 00002KT 28/10 A2994 RMK A01 T02770097  RH  032%=      5-min Rain = 0
KNH1 130147Z 35003KT 28/10 A2994 RMK A01 T02760097  RH  033%=      5-min Rain = 0
KNH1 130148Z 36003KT 28/10 A2994 RMK A01 T02750097  RH  033%=      5-min Rain = 0
KNH1 130149Z 01002KT 28/10 A2994 RMK A01 T02750097  RH  033%=      5-min Rain = 0
KNH1 130150Z 02002KT 27/10 A2994 RMK A01 T02740097  RH  033%=      5-min Rain = 0
KNH1 130151Z 03002KT 27/10 A2994 RMK A01 T02740097  RH  033%=      5-min Rain = 0
KNH1 130152Z 03002KT 27/10 A2994 RMK A01 T02730097  RH  033%=      5-min Rain = 0
KNH1 130153Z 03002KT 27/10 A2994 RMK A01 T02730098  RH  033%=      5-min Rain = 0
KNH1 130154Z 02002KT 27/10 A2994 RMK A01 T02720097  RH  033%=      5-min Rain = 0
KNH1 130155Z 03002KT 27/10 A2994 RMK A01 T02710097  RH  034%=      5-min Rain = 0
KNH1 130156Z 03002KT 27/10 A2994 RMK A01 T02700097  RH  034%=      5-min Rain = 0
KNH1 130157Z 03002KT 27/10 A2994 RMK A01 T02690095  RH  033%=      5-min Rain = 0
KNH1 130158Z 03002KT 27/10 A2994 RMK A01 T02690095  RH  033%=      5-min Rain = 0
KNH1 130159Z 04002KT 27/09 A2994 RMK A01 T02690094  RH  033%=      5-min Rain = 0
KNH1 130200Z 03002KT 27/10 A2994 RMK A01 T02690095  RH  033%=      5-min Rain = 0
KNH1 130201Z 03002KT 27/10 A2994 RMK A01 T02700096  RH  034%=      5-min Rain = 0
KNH1 130202Z 04002KT 27/10 A2994 RMK A01 T02690096  RH  034%=      5-min Rain = 0
KNH1 130203Z 04003KT 27/10 A2994 RMK A01 T02690096  RH  034%=      5-min Rain = 0
KNH1 130204Z 04003KT 27/10 A2994 RMK A01 T02680096  RH  034%=      5-min Rain = 0
KNH1 130205Z 03003KT 27/10 A2994 RMK A01 T02690098  RH  034%=      5-min Rain = 0
KNH1 130206Z 03002KT 27/10 A2994 RMK A01 T02680101  RH  035%=      5-min Rain = 0
KNH1 130207Z 04003KT 27/10 A2994 RMK A01 T02680103  RH  036%=      5-min Rain = 0
KNH1 130208Z 04003KT 27/10 A2994 RMK A01 T02660101  RH  036%=      5-min Rain = 0
KNH1 130209Z 04003KT 27/10 A2994 RMK A01 T02650101  RH  036%=      5-min Rain = 0
KNH1 130210Z 04003KT 26/10 A2994 RMK A01 T02630102  RH  036%=      5-min Rain = 0
KNH1 130211Z 04003KT 26/10 A2994 RMK A01 T02620102  RH  037%=      5-min Rain = 0
KNH1 130212Z 04003KT 26/10 A2994 RMK A01 T02600101  RH  037%=      5-min Rain = 0
KNH1 130213Z 04003KT 26/10 A2994 RMK A01 T02590101  RH  037%=      5-min Rain = 0
KNH1 130214Z 05002KT 26/10 A2994 RMK A01 T02580101  RH  037%=      5-min Rain = 0
KNH1 130215Z 06002KT 26/10 A2994 RMK A01 T02580103  RH  038%=      5-min Rain = 0
KNH1 130216Z 06002KT 26/10 A2994 RMK A01 T02580104  RH  038%=      5-min Rain = 0
KNH1 130217Z 07002KT 26/10 A2994 RMK A01 T02570103  RH  038%=      5-min Rain = 0
KNH1 130218Z 07003KT 26/10 A2994 RMK A01 T02560103  RH  038%=      5-min Rain = 0
KNH1 130219Z 06003KT 26/10 A2994 RMK A01 T02560103  RH  038%=      5-min Rain = 0
KNH1 130220Z 06004KT 26/10 A2994 RMK A01 T02550103  RH  038%=      5-min Rain = 0
KNH1 130221Z 07004KT 26/10 A2994 RMK A01 T02550104  RH  039%=      5-min Rain = 0
KNH1 130222Z 07004KT 25/10 A2995 RMK A01 T02540103  RH  039%=      5-min Rain = 0
KNH1 130223Z 06005KT 25/10 A2995 RMK A01 T02530101  RH  038%=      5-min Rain = 0
KNH1 130224Z 06005KT 25/10 A2995 RMK A01 T02530100  RH  038%=      5-min Rain = 0
KNH1 130225Z 06005KT 25/10 A2995 RMK A01 T02530100  RH  038%=      5-min Rain = 0
KNH1 130226Z 06005KT 25/10 A2995 RMK A01 T02530099  RH  038%=      5-min Rain = 0
KNH1 130227Z 06005KT 25/10 A2995 RMK A01 T02530099  RH  038%=      5-min Rain = 0
KNH1 130228Z 07005KT 25/10 A2995 RMK A01 T02540099  RH  037%=      5-min Rain = 0
KNH1 130229Z 06005KT 26/10 A2995 RMK A01 T02560099  RH  037%=      5-min Rain = 0
KNH1 130230Z 06005KT 26/10 A2995 RMK A01 T02570098  RH  037%=      5-min Rain = 0
KNH1 130231Z 06004KT 26/10 A2995 RMK A01 T02590098  RH  036%=      5-min Rain = 0
KNH1 130232Z 06004KT 26/10 A2995 RMK A01 T02600097  RH  036%=      5-min Rain = 0
KNH1 130233Z 06004KT 26/10 A2995 RMK A01 T02610096  RH  035%=      5-min Rain = 0
KNH1 130234Z 06004KT 26/10 A2995 RMK A01 T02600095  RH  035%=      5-min Rain = 0
KNH1 130235Z 06005KT 26/10 A2995 RMK A01 T02610095  RH  035%=      5-min Rain = 0
KNH1 130236Z 06005KT 26/10 A2995 RMK A01 T02620096  RH  035%=      5-min Rain = 0
KNH1 130237Z 06005KT 26/09 A2995 RMK A01 T02640094  RH  034%=      5-min Rain = 0
KNH1 130238Z 05004KT 27/10 A2995 RMK A01 T02650095  RH  034%=      5-min Rain = 0
KNH1 130239Z 06004KT 27/10 A2995 RMK A01 T02650095  RH  034%=      5-min Rain = 0
KNH1 130240Z 06005KT 27/10 A2995 RMK A01 T02650095  RH  034%=      5-min Rain = 0
KNH1 130241Z 06005KT 27/09 A2995 RMK A01 T02650093  RH  034%=      5-min Rain = 0
KNH1 130242Z 06005KT 27/09 A2995 RMK A01 T02660094  RH  034%=      5-min Rain = 0
KNH1 130243Z 06005KT 27/10 A2995 RMK A01 T02680095  RH  034%=      5-min Rain = 0
KNH1 130244Z 06005KT 27/10 A2995 RMK A01 T02690095  RH  033%=      5-min Rain = 0
KNH1 130245Z 06005KT 27/10 A2995 RMK A01 T02700095  RH  033%=      5-min Rain = 0
KNH1 130246Z 06008G13KT 27/10 A2995 RMK A01 T02690095  RH  033%=      5-min Rain = 0
KNH1 130247Z 07010KT 27/10 A2995 RMK A01 T02700096  RH  034%=      5-min Rain = 0
KNH1 130248Z 08009KT 27/10 A2995 RMK A01 T02710099  RH  034%=      5-min Rain = 0
KNH1 130249Z 08009KT 27/10 A2995 RMK A01 T02680100  RH  035%=      5-min Rain = 0
KNH1 130250Z 08009KT 27/10 A2995 RMK A01 T02650101  RH  036%=      5-min Rain = 0
KNH1 130251Z 08008KT 26/10 A2995 RMK A01 T02640103  RH  036%=      5-min Rain = 0
KNH1 130252Z 09007KT 26/10 A2995 RMK A01 T02620103  RH  037%=      5-min Rain = 0
KNH1 130253Z 08009KT 26/11 A2995 RMK A01 T02600105  RH  038%=      5-min Rain = 0
KNH1 130254Z 08010KT 26/11 A2995 RMK A01 T02580106  RH  038%=      5-min Rain = 0
KNH1 130255Z 09009KT 26/11 A2995 RMK A01 T02570106  RH  039%=      5-min Rain = 0
KNH1 130256Z 09008KT 26/11 A2995 RMK A01 T02570108  RH  039%=      5-min Rain = 0
KNH1 130257Z 08008KT 26/11 A2995 RMK A01 T02560109  RH  040%=      5-min Rain = 0
KNH1 130258Z 09008KT 25/11 A2995 RMK A01 T02540109  RH  040%=      5-min Rain = 0
KNH1 130259Z 08009KT 25/11 A2995 RMK A01 T02530108  RH  040%=      5-min Rain = 0
KNH1 130300Z 09010KT 25/11 A2995 RMK A01 T02530108  RH  040%=      5-min Rain = 0
KNH1 130301Z 09010KT 25/11 A2995 RMK A01 T02530109  RH  040%=      5-min Rain = 0
KNH1 130302Z 09008KT 25/11 A2995 RMK A01 T02530109  RH  041%=      5-min Rain = 0
KNH1 130303Z 10007KT 25/11 A2996 RMK A01 T02520110  RH  041%=      5-min Rain = 0
KNH1 130304Z 09009KT 25/11 A2996 RMK A01 T02510111  RH  041%=      5-min Rain = 0
KNH1 130305Z 09008KT 25/11 A2996 RMK A01 T02500111  RH  042%=      5-min Rain = 0
KNH1 130306Z 10008KT 25/11 A2996 RMK A01 T02500112  RH  042%=      5-min Rain = 0
KNH1 130307Z 10008KT 25/11 A2996 RMK A01 T02500112  RH  042%=      5-min Rain = 0
KNH1 130308Z 10009KT 25/11 A2996 RMK A01 T02490113  RH  042%=      5-min Rain = 0
KNH1 130309Z 10008KT 25/11 A2996 RMK A01 T02480113  RH  043%=      5-min Rain = 0
KNH1 130310Z 10009KT 25/11 A2996 RMK A01 T02470112  RH  043%=      5-min Rain = 0
KNH1 130311Z 10008KT 25/11 A2996 RMK A01 T02470113  RH  043%=      5-min Rain = 0
KNH1 130312Z 10009KT 25/11 A2996 RMK A01 T02470112  RH  043%=      5-min Rain = 0
KNH1 130313Z 10008KT 25/11 A2996 RMK A01 T02470112  RH  043%=      5-min Rain = 0
KNH1 130314Z 10008KT 25/11 A2996 RMK A01 T02470112  RH  043%=      5-min Rain = 0
KNH1 130315Z 10008KT 25/11 A2996 RMK A01 T02470113  RH  043%=      5-min Rain = 0
KNH1 130316Z 10008KT 25/11 A2996 RMK A01 T02460113  RH  043%=      5-min Rain = 0
KNH1 130317Z 10008KT 25/11 A2996 RMK A01 T02450113  RH  043%=      5-min Rain = 0
KNH1 130318Z 11007KT 25/11 A2996 RMK A01 T02450112  RH  043%=      5-min Rain = 0
KNH1 130319Z 10007KT 25/11 A2996 RMK A01 T02450112  RH  043%=      5-min Rain = 0
KNH1 130320Z 10008KT 25/11 A2996 RMK A01 T02450112  RH  043%=      5-min Rain = 0
KNH1 130321Z 10007KT 25/11 A2996 RMK A01 T02450112  RH  043%=      5-min Rain = 0
KNH1 130322Z 10008KT 25/11 A2996 RMK A01 T02450112  RH  043%=      5-min Rain = 0
KNH1 130323Z 10008KT 24/11 A2996 RMK A01 T02440112  RH  043%=      5-min Rain = 0
KNH1 130324Z 10008KT 24/11 A2996 RMK A01 T02440112  RH  043%=      5-min Rain = 0
KNH1 130325Z 09007KT 24/11 A2996 RMK A01 T02440112  RH  044%=      5-min Rain = 0
KNH1 130326Z 10007KT 24/11 A2996 RMK A01 T02430112  RH  044%=      5-min Rain = 0
KNH1 130327Z 10008KT 24/11 A2997 RMK A01 T02430112  RH  044%=      5-min Rain = 0
KNH1 130328Z 10008KT 24/11 A2997 RMK A01 T02430112  RH  044%=      5-min Rain = 0
KNH1 130329Z 10008KT 24/11 A2997 RMK A01 T02420112  RH  044%=      5-min Rain = 0
KNH1 130330Z 09006KT 24/11 A2997 RMK A01 T02420112  RH  044%=      5-min Rain = 0
KNH1 130331Z 10007KT 24/11 A2997 RMK A01 T02410112  RH  044%=      5-min Rain = 0
KNH1 130332Z 10007KT 24/11 A2997 RMK A01 T02410112  RH  044%=      5-min Rain = 0
KNH1 130333Z 10008KT 24/11 A2997 RMK A01 T02410112  RH  044%=      5-min Rain = 0
KNH1 130334Z 10007KT 24/11 A2997 RMK A01 T02400112  RH  044%=      5-min Rain = 0
KNH1 130335Z 10007KT 24/11 A2997 RMK A01 T02400112  RH  045%=      5-min Rain = 0
KNH1 130336Z 10006KT 24/11 A2997 RMK A01 T02400112  RH  045%=      5-min Rain = 0
KNH1 130337Z 10008KT 24/11 A2997 RMK A01 T02400112  RH  045%=      5-min Rain = 0
KNH1 130338Z 11007KT 24/11 A2997 RMK A01 T02390112  RH  045%=      5-min Rain = 0
KNH1 130339Z 10008KT 24/11 A2997 RMK A01 T02390112  RH  045%=      5-min Rain = 0
KNH1 130340Z 10008KT 24/11 A2997 RMK A01 T02390112  RH  045%=      5-min Rain = 0
KNH1 130341Z 10006KT 24/11 A2997 RMK A01 T02390112  RH  045%=      5-min Rain = 0
KNH1 130342Z 10008KT 24/11 A2997 RMK A01 T02380112  RH  045%=      5-min Rain = 0
KNH1 130343Z 10007KT 24/11 A2997 RMK A01 T02380112  RH  045%=      5-min Rain = 0
KNH1 130344Z 11007KT 24/11 A2997 RMK A01 T02380112  RH  045%=      5-min Rain = 0
KNH1 130345Z 10007KT 24/11 A2997 RMK A01 T02370112  RH  045%=      5-min Rain = 0
KNH1 130346Z 10007KT 24/11 A2997 RMK A01 T02370112  RH  045%=      5-min Rain = 0
KNH1 130347Z 10006KT 24/11 A2997 RMK A01 T02370112  RH  045%=      5-min Rain = 0
KNH1 130348Z 11006KT 24/11 A2997 RMK A01 T02370112  RH  045%=      5-min Rain = 0
KNH1 130349Z 11006KT 24/11 A2997 RMK A01 T02370112  RH  046%=      5-min Rain = 0
KNH1 130350Z 11006KT 24/11 A2997 RMK A01 T02360112  RH  046%=      5-min Rain = 0
KNH1 130351Z 10007KT 24/11 A2997 RMK A01 T02350112  RH  046%=      5-min Rain = 0
KNH1 130352Z 11007KT 24/11 A2997 RMK A01 T02350113  RH  046%=      5-min Rain = 0
KNH1 130353Z 11007KT 23/11 A2997 RMK A01 T02340112  RH  046%=      5-min Rain = 0
KNH1 130354Z 10007KT 23/11 A2997 RMK A01 T02340112  RH  046%=      5-min Rain = 0
KNH1 130355Z 11006KT 23/11 A2997 RMK A01 T02340112  RH  046%=      5-min Rain = 0
KNH1 130356Z 11008KT 23/11 A2997 RMK A01 T02330112  RH  046%=      5-min Rain = 0
KNH1 130357Z 11007KT 23/11 A2997 RMK A01 T02330112  RH  046%=      5-min Rain = 0
KNH1 130358Z 11007KT 23/11 A2997 RMK A01 T02330112  RH  046%=      5-min Rain = 0
KNH1 130359Z 11007KT 23/11 A2997 RMK A01 T02330112  RH  046%=      5-min Rain = 0
KNH1 130400Z 12006KT 23/11 A2997 RMK A01 T02320112  RH  047%=      5-min Rain = 0
KNH1 130401Z 11007KT 23/11 A2997 RMK A01 T02320112  RH  047%=      5-min Rain = 0
KNH1 130402Z 11007KT 23/11 A2997 RMK A01 T02310112  RH  047%=      5-min Rain = 0
KNH1 130403Z 11008KT 23/11 A2997 RMK A01 T02300112  RH  047%=      5-min Rain = 0
KNH1 130404Z 12007KT 23/11 A2997 RMK A01 T02290112  RH  047%=      5-min Rain = 0
KNH1 130405Z 12007KT 23/11 A2997 RMK A01 T02280112  RH  048%=      5-min Rain = 0
KNH1 130406Z 11007KT 23/11 A2997 RMK A01 T02280111  RH  048%=      5-min Rain = 0
KNH1 130407Z 11007KT 23/11 A2997 RMK A01 T02280112  RH  048%=      5-min Rain = 0
KNH1 130408Z 12007KT 23/11 A2997 RMK A01 T02280112  RH  048%=      5-min Rain = 0
KNH1 130409Z 11007KT 23/11 A2997 RMK A01 T02270112  RH  048%=      5-min Rain = 0
KNH1 130410Z 12007KT 23/11 A2997 RMK A01 T02270112  RH  048%=      5-min Rain = 0
KNH1 130411Z 12007KT 23/11 A2997 RMK A01 T02270112  RH  048%=      5-min Rain = 0
KNH1 130412Z 12007KT 23/11 A2997 RMK A01 T02270112  RH  048%=      5-min Rain = 0
KNH1 130413Z 11007KT 23/11 A2997 RMK A01 T02260112  RH  048%=      5-min Rain = 0
KNH1 130414Z 11006KT 23/11 A2997 RMK A01 T02260111  RH  048%=      5-min Rain = 0
KNH1 130415Z 12007KT 23/11 A2997 RMK A01 T02260111  RH  048%=      5-min Rain = 0
KNH1 130416Z 12006KT 23/11 A2997 RMK A01 T02260111  RH  048%=      5-min Rain = 0
KNH1 130417Z 11007KT 23/11 A2997 RMK A01 T02260111  RH  048%=      5-min Rain = 0
KNH1 130418Z 11007KT 23/11 A2997 RMK A01 T02260111  RH  048%=      5-min Rain = 0
KNH1 130419Z 12006KT 23/11 A2997 RMK A01 T02250110  RH  048%=      5-min Rain = 0
KNH1 130420Z 12006KT 23/11 A2997 RMK A01 T02250110  RH  048%=      5-min Rain = 0
KNH1 130421Z 11007KT 22/11 A2997 RMK A01 T02240110  RH  048%=      5-min Rain = 0
KNH1 130422Z 12006KT 22/11 A2997 RMK A01 T02240111  RH  049%=      5-min Rain = 0
KNH1 130423Z 12006KT 22/11 A2997 RMK A01 T02240110  RH  049%=      5-min Rain = 0
KNH1 130424Z 11006KT 22/11 A2997 RMK A01 T02240110  RH  049%=      5-min Rain = 0
KNH1 130425Z 11007KT 22/11 A2997 RMK A01 T02240110  RH  049%=      5-min Rain = 0
KNH1 130426Z 12007KT 22/11 A2997 RMK A01 T02240110  RH  049%=      5-min Rain = 0
KNH1 130427Z 12006KT 22/11 A2997 RMK A01 T02230110  RH  049%=      5-min Rain = 0
KNH1 130428Z 11005KT 22/11 A2997 RMK A01 T02230110  RH  049%=      5-min Rain = 0
KNH1 130429Z 11005KT 22/11 A2997 RMK A01 T02220110  RH  049%=      5-min Rain = 0
KNH1 130430Z 11005KT 22/11 A2997 RMK A01 T02210111  RH  050%=      5-min Rain = 0
KNH1 130431Z 11005KT 22/11 A2997 RMK A01 T02210112  RH  050%=      5-min Rain = 0
KNH1 130432Z 10005KT 22/11 A2997 RMK A01 T02200110  RH  050%=      5-min Rain = 0
KNH1 130433Z 11006KT 22/11 A2997 RMK A01 T02190111  RH  050%=      5-min Rain = 0
KNH1 130434Z 11005KT 22/11 A2997 RMK A01 T02180111  RH  050%=      5-min Rain = 0
KNH1 130435Z 11006KT 22/11 A2997 RMK A01 T02170112  RH  051%=      5-min Rain = 0
KNH1 130436Z 11006KT 22/11 A2997 RMK A01 T02170112  RH  051%=      5-min Rain = 0
KNH1 130437Z 10005KT 22/11 A2997 RMK A01 T02170112  RH  051%=      5-min Rain = 0
KNH1 130438Z 11006KT 22/11 A2997 RMK A01 T02170112  RH  051%=      5-min Rain = 0
KNH1 130439Z 11006KT 22/11 A2997 RMK A01 T02170112  RH  051%=      5-min Rain = 0
KNH1 130440Z 11006KT 22/11 A2997 RMK A01 T02170112  RH  051%=      5-min Rain = 0
KNH1 130441Z 11006KT 22/11 A2997 RMK A01 T02170112  RH  051%=      5-min Rain = 0
KNH1 130442Z 11006KT 22/11 A2997 RMK A01 T02170112  RH  051%=      5-min Rain = 0
KNH1 130443Z 11006KT 22/11 A2997 RMK A01 T02170112  RH  051%=      5-min Rain = 0
KNH1 130444Z 11006KT 22/11 A2997 RMK A01 T02170112  RH  051%=      5-min Rain = 0
KNH1 130445Z 11006KT 22/11 A2997 RMK A01 T02170112  RH  051%=      5-min Rain = 0
KNH1 130446Z 11006KT 22/11 A2997 RMK A01 T02160112  RH  051%=      5-min Rain = 0
KNH1 130447Z 11006KT 22/11 A2997 RMK A01 T02160112  RH  052%=      5-min Rain = 0
KNH1 130448Z 11005KT 22/11 A2997 RMK A01 T02150112  RH  052%=      5-min Rain = 0
KNH1 130449Z 11006KT 21/11 A2997 RMK A01 T02140112  RH  052%=      5-min Rain = 0
KNH1 130450Z 11005KT 21/11 A2997 RMK A01 T02140112  RH  052%=      5-min Rain = 0
KNH1 130451Z 11004KT 21/11 A2997 RMK A01 T02130112  RH  053%=      5-min Rain = 0
KNH1 130452Z 11004KT 21/11 A2997 RMK A01 T02120112  RH  053%=      5-min Rain = 0
KNH1 130453Z 11004KT 21/11 A2997 RMK A01 T02110112  RH  053%=      5-min Rain = 0
KNH1 130454Z 11005KT 21/11 A2997 RMK A01 T02100112  RH  053%=      5-min Rain = 0
KNH1 130455Z 11004KT 21/11 A2997 RMK A01 T02090112  RH  054%=      5-min Rain = 0
KNH1 130456Z 10003KT 21/11 A2997 RMK A01 T02080112  RH  054%=      5-min Rain = 0
KNH1 130457Z 10004KT 21/11 A2997 RMK A01 T02070112  RH  054%=      5-min Rain = 0
KNH1 130458Z 10004KT 21/11 A2997 RMK A01 T02060112  RH  055%=      5-min Rain = 0
KNH1 130459Z 10004KT 21/11 A2997 RMK A01 T02050113  RH  055%=      5-min Rain = 0

Page generated in 0.0815 seconds.